AAL562 KMCO-EBBR
Flight info
| Callsign | AAL562 |
|---|---|
| Flight time | 9h 0m |
| Altitude | 34000 |
| Route | JEEMY4 PAINN SHRKS BERTT GURGE RAYVO Q87 NOWAE FAK BOOYA Q34 RBV Q22 LLUND BIZEX Q133 CAM BEEHS JIGZY TAFFY N693A NEEKO 5350N 5440N 5430N 5420N DOGAL BEXET BOFUM Q37 MALUD UL975 WAL M16 DOLAS NAVPI ALFEN ORCAV Z310 BATAK Z310 WOODY |
| Aircraft | B77W/H-SDE1E2E3FGHIJ2J3J4J5M1RWXY/LB1D1 |
Departure
| Time | 2026-04-25 12:57 |
|---|---|
| Airport | Orlando International Airport (KMCO) |
Arrival
| Time | 2026-04-25 21:57 |
|---|---|
| Airport | Brussels Airport (EBBR) |
| Time | Latitude | Longitude | Altitude | Speed | Heading |
|---|---|---|---|---|---|
| 2026-04-25 12:09 | 28.42785 | -81.31591 | 99 ft | 0 kts | 40° |
| 2026-04-25 12:38 | 28.42782 | -81.31594 | 99 ft | 3 kts | 39° |
| 2026-04-25 12:38 | 28.42766 | -81.31609 | 101 ft | 3 kts | 41° |
| 2026-04-25 12:39 | 28.42750 | -81.31625 | 97 ft | 3 kts | 40° |
| 2026-04-25 12:39 | 28.42734 | -81.31640 | 99 ft | 3 kts | 38° |
| 2026-04-25 12:39 | 28.42720 | -81.31650 | 97 ft | 2 kts | 11° |
| 2026-04-25 12:39 | 28.42703 | -81.31651 | 98 ft | 2 kts | 352° |
| 2026-04-25 12:40 | 28.42692 | -81.31649 | 97 ft | 1 kts | 349° |
| 2026-04-25 12:40 | 28.42684 | -81.31647 | 98 ft | 1 kts | 348° |
| 2026-04-25 12:40 | 28.42676 | -81.31645 | 99 ft | 0 kts | 347° |
| 2026-04-25 12:42 | 28.42683 | -81.31647 | 98 ft | 4 kts | 347° |
| 2026-04-25 12:42 | 28.42707 | -81.31688 | 101 ft | 8 kts | 278° |
| 2026-04-25 12:43 | 28.42708 | -81.31740 | 104 ft | 0 kts | 270° |
| 2026-04-25 12:44 | 28.42708 | -81.31742 | 104 ft | 2 kts | 270° |
| 2026-04-25 12:44 | 28.42708 | -81.31853 | 106 ft | 8 kts | 270° |
| 2026-04-25 12:45 | 28.42708 | -81.31876 | 107 ft | 0 kts | 269° |
| 2026-04-25 12:45 | 28.42708 | -81.31878 | 107 ft | 2 kts | 269° |
| 2026-04-25 12:46 | 28.42711 | -81.31941 | 107 ft | 14 kts | 283° |
| 2026-04-25 12:46 | 28.42823 | -81.31993 | 105 ft | 22 kts | 359° |
| 2026-04-25 12:46 | 28.42966 | -81.31994 | 106 ft | 19 kts | 359° |
| 2026-04-25 12:46 | 28.43096 | -81.31995 | 105 ft | 19 kts | 359° |
| 2026-04-25 12:47 | 28.43226 | -81.31996 | 106 ft | 19 kts | 359° |
| 2026-04-25 12:47 | 28.43355 | -81.31998 | 104 ft | 19 kts | 359° |
| 2026-04-25 12:47 | 28.43485 | -81.31999 | 104 ft | 19 kts | 359° |
| 2026-04-25 12:47 | 28.43614 | -81.32000 | 106 ft | 19 kts | 359° |
| 2026-04-25 12:48 | 28.43744 | -81.32002 | 106 ft | 19 kts | 359° |
| 2026-04-25 12:48 | 28.43873 | -81.32004 | 106 ft | 19 kts | 359° |
| 2026-04-25 12:48 | 28.44003 | -81.32005 | 105 ft | 19 kts | 359° |
| 2026-04-25 12:48 | 28.44133 | -81.32007 | 104 ft | 19 kts | 359° |
| 2026-04-25 12:49 | 28.44262 | -81.32008 | 106 ft | 19 kts | 359° |
| 2026-04-25 12:49 | 28.44385 | -81.32009 | 104 ft | 14 kts | 359° |
| 2026-04-25 12:49 | 28.44467 | -81.32010 | 104 ft | 9 kts | 359° |
| 2026-04-25 12:49 | 28.44518 | -81.32010 | 106 ft | 5 kts | 359° |
| 2026-04-25 12:50 | 28.44535 | -81.32011 | 103 ft | 0 kts | 359° |
| 2026-04-25 12:51 | 28.44558 | -81.32011 | 104 ft | 9 kts | 359° |
| 2026-04-25 12:51 | 28.44621 | -81.32011 | 106 ft | 9 kts | 359° |
| 2026-04-25 12:51 | 28.44682 | -81.32014 | 104 ft | 9 kts | 350° |
| 2026-04-25 12:51 | 28.44712 | -81.32068 | 105 ft | 9 kts | 271° |
| 2026-04-25 12:52 | 28.44712 | -81.32102 | 103 ft | 1 kts | 268° |
| 2026-04-25 12:52 | 28.44712 | -81.32104 | 103 ft | 0 kts | 268° |
| 2026-04-25 12:53 | 28.44711 | -81.32140 | 102 ft | 10 kts | 269° |
| 2026-04-25 12:53 | 28.44709 | -81.32210 | 102 ft | 8 kts | 258° |
| 2026-04-25 12:54 | 28.44673 | -81.32231 | 103 ft | 0 kts | 179° |
| 2026-04-25 12:56 | 28.44597 | -81.32230 | 104 ft | 30 kts | 179° |
| 2026-04-25 12:56 | 28.44122 | -81.32226 | 106 ft | 105 kts | 179° |
| 2026-04-25 12:56 | 28.43159 | -81.32215 | 103 ft | 169 kts | 179° |
| 2026-04-25 12:56 | 28.41846 | -81.32200 | 313 ft | 196 kts | 179° |
| 2026-04-25 12:57 | 28.40938 | -81.32191 | 827 ft | 188 kts | 179° |
| 2026-04-25 12:57 | 28.39634 | -81.32250 | 1426 ft | 192 kts | 187° |
| 2026-04-25 12:57 | 28.38302 | -81.32664 | 1520 ft | 207 kts | 210° |
| 2026-04-25 12:57 | 28.37025 | -81.33583 | 1696 ft | 228 kts | 212° |
| 2026-04-25 12:58 | 28.35635 | -81.34548 | 2120 ft | 240 kts | 211° |
| 2026-04-25 12:58 | 28.34260 | -81.35659 | 2571 ft | 248 kts | 225° |
| 2026-04-25 12:58 | 28.33087 | -81.37140 | 3064 ft | 257 kts | 229° |
| 2026-04-25 12:58 | 28.31934 | -81.38725 | 3585 ft | 263 kts | 235° |
| 2026-04-25 12:59 | 28.31212 | -81.40640 | 4110 ft | 268 kts | 259° |
| 2026-04-25 12:59 | 28.30940 | -81.42745 | 4749 ft | 271 kts | 263° |
| 2026-04-25 12:59 | 28.30693 | -81.44865 | 5442 ft | 272 kts | 263° |
| 2026-04-25 12:59 | 28.30449 | -81.47003 | 6121 ft | 274 kts | 264° |
| 2026-04-25 13:00 | 28.30525 | -81.49156 | 6611 ft | 278 kts | 288° |
| 2026-04-25 13:00 | 28.31056 | -81.50489 | 6928 ft | 275 kts | 305° |
| 2026-04-25 13:00 | 28.32836 | -81.52535 | 7004 ft | 278 kts | 321° |
| 2026-04-25 13:00 | 28.34371 | -81.53897 | 7004 ft | 281 kts | 322° |
| 2026-04-25 13:01 | 28.35934 | -81.55237 | 7361 ft | 281 kts | 323° |
| 2026-04-25 13:01 | 28.37628 | -81.56343 | 8064 ft | 279 kts | 343° |
| 2026-04-25 13:01 | 28.39532 | -81.56739 | 8691 ft | 280 kts | 352° |
| 2026-04-25 13:01 | 28.41481 | -81.56980 | 9327 ft | 282 kts | 353° |
| 2026-04-25 13:02 | 28.43442 | -81.57196 | 9973 ft | 284 kts | 353° |
| 2026-04-25 13:02 | 28.45427 | -81.57406 | 10412 ft | 293 kts | 353° |
| 2026-04-25 13:02 | 28.47532 | -81.57626 | 10567 ft | 315 kts | 353° |
| 2026-04-25 13:02 | 28.49780 | -81.57727 | 10699 ft | 335 kts | 4° |
| 2026-04-25 13:03 | 28.52126 | -81.57095 | 10862 ft | 358 kts | 17° |
| 2026-04-25 13:03 | 28.54523 | -81.56151 | 11249 ft | 371 kts | 17° |
| 2026-04-25 13:03 | 28.56984 | -81.55171 | 11845 ft | 378 kts | 17° |
| 2026-04-25 13:03 | 28.59487 | -81.54200 | 12656 ft | 381 kts | 17° |
| 2026-04-25 13:04 | 28.62008 | -81.53252 | 13508 ft | 383 kts | 16° |
| 2026-04-25 13:04 | 28.64563 | -81.52314 | 14225 ft | 388 kts | 15° |
| 2026-04-25 13:04 | 28.67154 | -81.51378 | 14876 ft | 393 kts | 15° |
| 2026-04-25 13:04 | 28.69778 | -81.50436 | 15537 ft | 399 kts | 15° |
| 2026-04-25 13:05 | 28.72427 | -81.49487 | 16010 ft | 402 kts | 15° |
| 2026-04-25 13:05 | 28.75121 | -81.48523 | 15981 ft | 404 kts | 15° |
| 2026-04-25 13:05 | 28.77795 | -81.47564 | 15985 ft | 403 kts | 15° |
| 2026-04-25 13:05 | 28.80470 | -81.46604 | 15982 ft | 402 kts | 15° |
| 2026-04-25 13:06 | 28.83133 | -81.45647 | 15980 ft | 402 kts | 15° |
| 2026-04-25 13:06 | 28.85807 | -81.44688 | 15986 ft | 402 kts | 15° |
| 2026-04-25 13:06 | 28.88477 | -81.43729 | 15974 ft | 402 kts | 15° |
| 2026-04-25 13:06 | 28.91150 | -81.42768 | 16112 ft | 406 kts | 15° |
| 2026-04-25 13:07 | 28.93891 | -81.41991 | 16771 ft | 408 kts | 7° |
| 2026-04-25 13:07 | 28.96719 | -81.41650 | 17548 ft | 408 kts | 0° |
| 2026-04-25 13:07 | 28.99559 | -81.41678 | 18263 ft | 410 kts | 353° |
| 2026-04-25 13:07 | 29.02449 | -81.42021 | 18829 ft | 414 kts | 352° |
| 2026-04-25 13:08 | 29.05320 | -81.42384 | 19432 ft | 417 kts | 352° |
| 2026-04-25 13:08 | 29.08221 | -81.42726 | 20081 ft | 420 kts | 352° |
| 2026-04-25 13:08 | 29.11141 | -81.43048 | 20699 ft | 423 kts | 353° |
| 2026-04-25 13:08 | 29.14077 | -81.43337 | 21293 ft | 426 kts | 353° |
| 2026-04-25 13:09 | 29.17056 | -81.43613 | 21842 ft | 430 kts | 353° |
| 2026-04-25 13:09 | 29.20055 | -81.43888 | 22407 ft | 434 kts | 353° |
| 2026-04-25 13:09 | 29.23069 | -81.44166 | 22980 ft | 437 kts | 353° |
| 2026-04-25 13:09 | 29.26112 | -81.44451 | 23546 ft | 440 kts | 353° |
| 2026-04-25 13:10 | 29.29181 | -81.44741 | 23987 ft | 444 kts | 353° |
| 2026-04-25 13:10 | 29.32273 | -81.45035 | 24451 ft | 447 kts | 354° |
| 2026-04-25 13:10 | 29.35376 | -81.45330 | 24919 ft | 449 kts | 354° |
| 2026-04-25 13:10 | 29.38503 | -81.45628 | 25388 ft | 452 kts | 354° |
| 2026-04-25 13:11 | 29.41648 | -81.45928 | 25832 ft | 455 kts | 354° |
| 2026-04-25 13:11 | 29.44804 | -81.46230 | 26286 ft | 457 kts | 354° |
| 2026-04-25 13:11 | 29.47989 | -81.46534 | 26718 ft | 460 kts | 354° |
| 2026-04-25 13:11 | 29.51165 | -81.46837 | 27444 ft | 454 kts | 354° |
| 2026-04-25 13:12 | 29.54273 | -81.47133 | 28498 ft | 441 kts | 355° |
| 2026-04-25 13:12 | 29.57286 | -81.47422 | 29623 ft | 428 kts | 355° |
| 2026-04-25 13:12 | 29.60217 | -81.47697 | 30546 ft | 419 kts | 355° |
| 2026-04-25 13:12 | 29.62183 | -81.47876 | 30777 ft | 422 kts | 355° |
| 2026-04-25 13:13 | 29.66098 | -81.48227 | 30994 ft | 431 kts | 355° |
| 2026-04-25 13:13 | 29.69105 | -81.48497 | 31239 ft | 435 kts | 355° |
| 2026-04-25 13:13 | 29.72130 | -81.48769 | 31585 ft | 437 kts | 355° |
| 2026-04-25 13:13 | 29.75163 | -81.49043 | 31944 ft | 438 kts | 355° |
| 2026-04-25 13:14 | 29.78208 | -81.49319 | 32260 ft | 440 kts | 355° |
| 2026-04-25 13:14 | 29.81270 | -81.49597 | 32535 ft | 443 kts | 355° |
| 2026-04-25 13:14 | 29.84353 | -81.49877 | 32804 ft | 445 kts | 355° |
| 2026-04-25 13:14 | 29.87485 | -81.50211 | 33073 ft | 447 kts | 352° |
| 2026-04-25 13:15 | 29.90555 | -81.50835 | 33311 ft | 450 kts | 347° |
| 2026-04-25 13:15 | 29.93594 | -81.51824 | 33381 ft | 456 kts | 343° |
| 2026-04-25 13:15 | 29.96627 | -81.52924 | 33680 ft | 456 kts | 342° |
| 2026-04-25 13:15 | 29.99622 | -81.54025 | 34334 ft | 446 kts | 342° |
| 2026-04-25 13:16 | 30.02557 | -81.55100 | 34879 ft | 441 kts | 342° |
| 2026-04-25 13:16 | 30.05485 | -81.56165 | 34972 ft | 445 kts | 343° |
| 2026-04-25 13:16 | 30.11483 | -81.58323 | 34977 ft | 455 kts | 343° |
| 2026-04-25 13:17 | 30.17506 | -81.60479 | 34971 ft | 450 kts | 343° |
| 2026-04-25 13:17 | 30.23455 | -81.62609 | 34981 ft | 446 kts | 343° |
| 2026-04-25 13:18 | 30.29414 | -81.64747 | 34983 ft | 449 kts | 343° |
| 2026-04-25 13:18 | 30.35385 | -81.66893 | 34978 ft | 449 kts | 343° |
| 2026-04-25 13:19 | 30.41354 | -81.69040 | 34964 ft | 449 kts | 343° |
| 2026-04-25 13:19 | 30.45341 | -81.70477 | 34960 ft | 448 kts | 343° |
| 2026-04-25 13:20 | 30.53266 | -81.73335 | 34966 ft | 448 kts | 343° |
| 2026-04-25 13:20 | 30.59279 | -81.75407 | 34964 ft | 447 kts | 348° |
| 2026-04-25 13:21 | 30.65460 | -81.76138 | 34977 ft | 448 kts | 360° |
| 2026-04-25 13:21 | 30.71677 | -81.75546 | 34973 ft | 449 kts | 6° |
| 2026-04-25 13:22 | 30.77901 | -81.74699 | 34964 ft | 450 kts | 6° |
| 2026-04-25 13:23 | 30.87247 | -81.73490 | 34965 ft | 451 kts | 5° |
| 2026-04-25 13:23 | 30.93483 | -81.72711 | 34965 ft | 450 kts | 5° |
| 2026-04-25 13:24 | 30.99703 | -81.71934 | 34962 ft | 449 kts | 5° |
| 2026-04-25 13:24 | 31.05915 | -81.71155 | 34958 ft | 448 kts | 5° |
| 2026-04-25 13:25 | 31.12110 | -81.70378 | 34959 ft | 447 kts | 5° |
| 2026-04-25 13:25 | 31.18259 | -81.69278 | 34960 ft | 449 kts | 13° |
| 2026-04-25 13:26 | 31.24237 | -81.67140 | 34967 ft | 450 kts | 16° |
| 2026-04-25 13:26 | 31.30214 | -81.64911 | 34961 ft | 451 kts | 16° |
| 2026-04-25 13:27 | 31.36241 | -81.62686 | 34961 ft | 451 kts | 16° |
| 2026-04-25 13:27 | 31.42235 | -81.60491 | 34961 ft | 451 kts | 16° |
| 2026-04-25 13:28 | 31.47220 | -81.58668 | 34961 ft | 451 kts | 16° |
| 2026-04-25 13:28 | 31.53212 | -81.56474 | 34963 ft | 451 kts | 16° |
| 2026-04-25 13:29 | 31.59189 | -81.54282 | 34965 ft | 450 kts | 16° |
| 2026-04-25 13:29 | 31.65172 | -81.52085 | 34952 ft | 450 kts | 16° |
| 2026-04-25 13:30 | 31.74125 | -81.48791 | 34948 ft | 450 kts | 16° |
| 2026-04-25 13:31 | 31.83126 | -81.45473 | 34947 ft | 450 kts | 16° |
| 2026-04-25 13:31 | 31.89110 | -81.43263 | 34948 ft | 451 kts | 16° |
| 2026-04-25 13:32 | 31.95097 | -81.41049 | 34943 ft | 452 kts | 16° |
| 2026-04-25 13:32 | 32.01094 | -81.38828 | 34945 ft | 452 kts | 16° |
| 2026-04-25 13:33 | 32.07092 | -81.36604 | 34953 ft | 452 kts | 16° |
| 2026-04-25 13:33 | 32.13094 | -81.34375 | 34954 ft | 452 kts | 16° |
| 2026-04-25 13:34 | 32.19099 | -81.32143 | 34955 ft | 452 kts | 16° |
| 2026-04-25 13:34 | 32.25094 | -81.29910 | 34944 ft | 452 kts | 16° |
| 2026-04-25 13:35 | 32.31089 | -81.27674 | 34951 ft | 451 kts | 16° |
| 2026-04-25 13:35 | 32.37077 | -81.25438 | 34940 ft | 451 kts | 16° |
| 2026-04-25 13:36 | 32.43062 | -81.23200 | 34941 ft | 451 kts | 16° |
| 2026-04-25 13:36 | 32.48821 | -81.20231 | 34939 ft | 453 kts | 28° |
| 2026-04-25 13:37 | 32.53996 | -81.15937 | 34939 ft | 456 kts | 37° |
| 2026-04-25 13:37 | 32.58896 | -81.11129 | 34938 ft | 458 kts | 38° |
| 2026-04-25 13:38 | 32.63826 | -81.06261 | 34936 ft | 459 kts | 38° |
| 2026-04-25 13:38 | 32.68751 | -81.01439 | 34939 ft | 459 kts | 38° |
| 2026-04-25 13:39 | 32.73687 | -80.96627 | 34939 ft | 459 kts | 38° |
| 2026-04-25 13:39 | 32.78633 | -80.91804 | 34930 ft | 459 kts | 38° |
| 2026-04-25 13:40 | 32.83562 | -80.86982 | 34944 ft | 458 kts | 38° |
| 2026-04-25 13:40 | 32.88475 | -80.82173 | 34959 ft | 457 kts | 38° |
| 2026-04-25 13:41 | 32.93379 | -80.77363 | 34953 ft | 457 kts | 38° |
| 2026-04-25 13:41 | 32.98280 | -80.72550 | 34955 ft | 457 kts | 38° |
| 2026-04-25 13:42 | 33.03185 | -80.67727 | 34954 ft | 457 kts | 38° |
| 2026-04-25 13:42 | 33.08095 | -80.62892 | 34950 ft | 459 kts | 38° |
| 2026-04-25 13:43 | 33.13021 | -80.58032 | 34944 ft | 459 kts | 38° |
| 2026-04-25 13:43 | 33.17946 | -80.53166 | 34921 ft | 460 kts | 38° |
| 2026-04-25 13:44 | 33.22902 | -80.48262 | 34932 ft | 459 kts | 38° |
| 2026-04-25 13:44 | 33.27811 | -80.43398 | 34928 ft | 459 kts | 38° |
| 2026-04-25 13:45 | 33.32727 | -80.38520 | 34921 ft | 458 kts | 38° |
| 2026-04-25 13:45 | 33.37626 | -80.33649 | 34924 ft | 457 kts | 38° |
| 2026-04-25 13:46 | 33.42506 | -80.28791 | 34924 ft | 456 kts | 39° |
| 2026-04-25 13:46 | 33.47377 | -80.23934 | 34934 ft | 456 kts | 39° |
| 2026-04-25 13:47 | 33.52253 | -80.19065 | 34944 ft | 457 kts | 39° |
| 2026-04-25 13:47 | 33.57140 | -80.14178 | 34945 ft | 458 kts | 39° |
| 2026-04-25 13:48 | 33.62045 | -80.09264 | 34935 ft | 460 kts | 38° |
| 2026-04-25 13:48 | 33.67312 | -80.04942 | 34930 ft | 458 kts | 26° |
| 2026-04-25 13:49 | 33.72990 | -80.01519 | 34935 ft | 456 kts | 25° |
| 2026-04-25 13:49 | 33.78668 | -79.98134 | 34931 ft | 455 kts | 26° |
| 2026-04-25 13:50 | 33.84358 | -79.94692 | 34926 ft | 454 kts | 26° |
| 2026-04-25 13:50 | 33.89990 | -79.91257 | 34932 ft | 454 kts | 26° |
| 2026-04-25 13:51 | 33.95627 | -79.87810 | 34920 ft | 455 kts | 26° |
| 2026-04-25 13:51 | 34.01267 | -79.84359 | 34928 ft | 455 kts | 26° |
| 2026-04-25 13:52 | 34.06914 | -79.80896 | 34921 ft | 455 kts | 26° |
| 2026-04-25 13:52 | 34.12561 | -79.77430 | 34928 ft | 456 kts | 26° |
| 2026-04-25 13:53 | 34.18211 | -79.73957 | 34930 ft | 456 kts | 26° |
| 2026-04-25 13:53 | 34.23866 | -79.70467 | 34925 ft | 456 kts | 26° |
| 2026-04-25 13:54 | 34.29513 | -79.66974 | 34926 ft | 456 kts | 26° |
| 2026-04-25 13:54 | 34.35153 | -79.63481 | 34918 ft | 455 kts | 26° |
| 2026-04-25 13:55 | 34.40794 | -79.59986 | 34923 ft | 455 kts | 26° |
| 2026-04-25 13:55 | 34.46436 | -79.56487 | 34923 ft | 456 kts | 26° |
| 2026-04-25 13:56 | 34.52110 | -79.52962 | 34933 ft | 456 kts | 26° |
| 2026-04-25 13:56 | 34.57732 | -79.49402 | 34919 ft | 455 kts | 27° |
| 2026-04-25 13:57 | 34.63251 | -79.45641 | 34920 ft | 456 kts | 28° |
| 2026-04-25 13:57 | 34.68793 | -79.41880 | 34928 ft | 457 kts | 28° |
| 2026-04-25 13:58 | 34.74366 | -79.38120 | 34935 ft | 459 kts | 28° |
| 2026-04-25 13:58 | 34.79948 | -79.34343 | 34937 ft | 459 kts | 28° |
| 2026-04-25 13:59 | 34.85527 | -79.30560 | 34928 ft | 459 kts | 28° |
| 2026-04-25 13:59 | 34.91131 | -79.26753 | 34949 ft | 464 kts | 28° |
| 2026-04-25 14:00 | 34.94927 | -79.24173 | 34938 ft | 471 kts | 28° |
| 2026-04-25 14:00 | 35.01693 | -79.19564 | 34906 ft | 480 kts | 28° |
| 2026-04-25 14:01 | 35.07546 | -79.15571 | 34917 ft | 483 kts | 28° |
| 2026-04-25 14:01 | 35.13428 | -79.11550 | 34906 ft | 485 kts | 28° |
| 2026-04-25 14:02 | 35.19315 | -79.07519 | 34905 ft | 485 kts | 28° |
| 2026-04-25 14:02 | 35.25198 | -79.03484 | 34901 ft | 484 kts | 28° |
| 2026-04-25 14:03 | 35.31058 | -78.99458 | 34904 ft | 482 kts | 28° |
| 2026-04-25 14:03 | 35.36897 | -78.95440 | 34911 ft | 481 kts | 28° |
| 2026-04-25 14:04 | 35.42729 | -78.91421 | 34920 ft | 481 kts | 28° |
| 2026-04-25 14:04 | 35.48552 | -78.87396 | 34915 ft | 481 kts | 28° |
| 2026-04-25 14:05 | 35.54380 | -78.83358 | 34915 ft | 481 kts | 28° |
| 2026-04-25 14:05 | 35.60216 | -78.79309 | 34906 ft | 483 kts | 27° |
| 2026-04-25 14:06 | 35.66081 | -78.75242 | 34904 ft | 484 kts | 27° |
| 2026-04-25 14:06 | 35.71991 | -78.71145 | 34902 ft | 485 kts | 27° |
| 2026-04-25 14:07 | 35.77875 | -78.67058 | 34905 ft | 486 kts | 27° |
| 2026-04-25 14:07 | 35.83762 | -78.62960 | 34902 ft | 487 kts | 27° |
| 2026-04-25 14:08 | 35.89657 | -78.58850 | 34901 ft | 487 kts | 27° |
| 2026-04-25 14:08 | 35.95551 | -78.54730 | 34908 ft | 487 kts | 27° |
| 2026-04-25 14:09 | 36.01448 | -78.50603 | 34910 ft | 487 kts | 27° |
| 2026-04-25 14:09 | 36.07341 | -78.46472 | 34910 ft | 487 kts | 27° |
| 2026-04-25 14:10 | 36.13233 | -78.42335 | 34916 ft | 487 kts | 27° |
| 2026-04-25 14:10 | 36.19118 | -78.38195 | 34904 ft | 487 kts | 26° |
| 2026-04-25 14:11 | 36.25051 | -78.34012 | 34889 ft | 487 kts | 26° |
| 2026-04-25 14:11 | 36.30933 | -78.29859 | 34892 ft | 487 kts | 26° |
| 2026-04-25 14:12 | 36.36853 | -78.25805 | 34890 ft | 484 kts | 22° |
| 2026-04-25 14:12 | 36.43131 | -78.22934 | 34885 ft | 479 kts | 12° |
| 2026-04-25 14:13 | 36.49550 | -78.20680 | 34910 ft | 479 kts | 12° |
| 2026-04-25 14:13 | 36.55963 | -78.18417 | 34922 ft | 480 kts | 12° |
| 2026-04-25 14:14 | 36.62379 | -78.16107 | 34941 ft | 480 kts | 12° |
| 2026-04-25 14:14 | 36.68788 | -78.13775 | 34949 ft | 480 kts | 12° |
| 2026-04-25 14:15 | 36.75202 | -78.11435 | 34947 ft | 480 kts | 12° |
| 2026-04-25 14:15 | 36.81618 | -78.09093 | 34934 ft | 480 kts | 12° |
| 2026-04-25 14:16 | 36.88079 | -78.06732 | 34919 ft | 481 kts | 12° |
| 2026-04-25 14:16 | 36.94503 | -78.04380 | 34882 ft | 481 kts | 12° |
| 2026-04-25 14:17 | 37.00922 | -78.02025 | 34893 ft | 481 kts | 12° |
| 2026-04-25 14:17 | 37.07334 | -77.99668 | 34890 ft | 481 kts | 12° |
| 2026-04-25 14:18 | 37.13754 | -77.97304 | 34894 ft | 481 kts | 12° |
| 2026-04-25 14:18 | 37.20179 | -77.94935 | 34887 ft | 482 kts | 12° |
| 2026-04-25 14:19 | 37.26610 | -77.92559 | 34886 ft | 482 kts | 12° |
| 2026-04-25 14:19 | 37.33048 | -77.90176 | 34882 ft | 482 kts | 12° |
| 2026-04-25 14:20 | 37.39484 | -77.87790 | 34894 ft | 482 kts | 11° |
| 2026-04-25 14:20 | 37.45927 | -77.85397 | 34896 ft | 483 kts | 11° |
| 2026-04-25 14:21 | 37.52367 | -77.82989 | 34901 ft | 484 kts | 13° |
| 2026-04-25 14:21 | 37.58670 | -77.79903 | 34912 ft | 487 kts | 18° |
| 2026-04-25 14:22 | 37.64956 | -77.76535 | 34923 ft | 488 kts | 18° |
| 2026-04-25 14:22 | 37.71211 | -77.73198 | 34927 ft | 488 kts | 17° |
| 2026-04-25 14:23 | 37.77478 | -77.69887 | 34932 ft | 488 kts | 17° |
| 2026-04-25 14:23 | 37.83747 | -77.66583 | 34934 ft | 488 kts | 17° |
| 2026-04-25 14:24 | 37.90011 | -77.63274 | 34934 ft | 488 kts | 17° |
| 2026-04-25 14:24 | 37.96283 | -77.59953 | 34930 ft | 488 kts | 17° |
| 2026-04-25 14:25 | 38.02542 | -77.56630 | 34936 ft | 488 kts | 17° |
| 2026-04-25 14:25 | 38.08807 | -77.53300 | 34932 ft | 488 kts | 17° |
| 2026-04-25 14:26 | 38.15066 | -77.49967 | 34929 ft | 488 kts | 17° |
| 2026-04-25 14:26 | 38.21328 | -77.46625 | 34938 ft | 488 kts | 17° |
| 2026-04-25 14:27 | 38.27580 | -77.43282 | 34940 ft | 488 kts | 17° |
| 2026-04-25 14:27 | 38.33842 | -77.39929 | 34942 ft | 488 kts | 17° |
| 2026-04-25 14:28 | 38.39954 | -77.35904 | 34937 ft | 498 kts | 30° |
| 2026-04-25 14:28 | 38.45189 | -77.30011 | 34964 ft | 508 kts | 43° |
| 2026-04-25 14:29 | 38.49827 | -77.23204 | 34966 ft | 509 kts | 44° |
| 2026-04-25 14:29 | 38.54459 | -77.16349 | 34964 ft | 509 kts | 44° |
| 2026-04-25 14:30 | 38.59125 | -77.09558 | 34939 ft | 509 kts | 43° |
| 2026-04-25 14:30 | 38.66147 | -76.99385 | 34940 ft | 508 kts | 43° |
| 2026-04-25 14:31 | 38.70815 | -76.92595 | 34975 ft | 508 kts | 43° |
| 2026-04-25 14:31 | 38.74723 | -76.86898 | 34975 ft | 508 kts | 43° |
| 2026-04-25 14:32 | 38.79377 | -76.80099 | 34971 ft | 507 kts | 43° |
| 2026-04-25 14:32 | 38.84028 | -76.73286 | 34970 ft | 507 kts | 43° |
| 2026-04-25 14:33 | 38.88665 | -76.66475 | 34968 ft | 506 kts | 43° |
| 2026-04-25 14:33 | 38.93294 | -76.59663 | 34995 ft | 506 kts | 43° |
| 2026-04-25 14:34 | 38.97915 | -76.52848 | 35001 ft | 506 kts | 43° |
| 2026-04-25 14:34 | 39.02529 | -76.46029 | 34983 ft | 505 kts | 43° |
| 2026-04-25 14:35 | 39.07138 | -76.39202 | 34988 ft | 505 kts | 43° |
| 2026-04-25 14:35 | 39.11742 | -76.32367 | 35004 ft | 505 kts | 43° |
| 2026-04-25 14:36 | 39.16337 | -76.25531 | 34995 ft | 505 kts | 43° |
| 2026-04-25 14:36 | 39.20929 | -76.18684 | 35001 ft | 505 kts | 43° |
| 2026-04-25 14:37 | 39.25547 | -76.11785 | 35001 ft | 504 kts | 43° |
| 2026-04-25 14:37 | 39.30134 | -76.04936 | 35009 ft | 504 kts | 43° |
| 2026-04-25 14:38 | 39.34714 | -75.98092 | 35003 ft | 504 kts | 43° |
| 2026-04-25 14:38 | 39.39295 | -75.91229 | 35013 ft | 504 kts | 43° |
| 2026-04-25 14:39 | 39.43863 | -75.84367 | 35020 ft | 504 kts | 43° |
| 2026-04-25 14:39 | 39.48425 | -75.77499 | 35031 ft | 503 kts | 43° |
| 2026-04-25 14:40 | 39.52988 | -75.70615 | 35043 ft | 503 kts | 43° |
| 2026-04-25 14:40 | 39.57543 | -75.63728 | 35047 ft | 503 kts | 43° |
| 2026-04-25 14:41 | 39.62088 | -75.56840 | 35050 ft | 503 kts | 43° |
| 2026-04-25 14:41 | 39.66589 | -75.49888 | 35051 ft | 505 kts | 46° |
| 2026-04-25 14:42 | 39.70093 | -75.43724 | 35032 ft | 507 kts | 48° |
| 2026-04-25 14:42 | 39.74871 | -75.35070 | 35065 ft | 506 kts | 48° |
| 2026-04-25 14:43 | 39.79018 | -75.27601 | 35065 ft | 506 kts | 48° |
| 2026-04-25 14:43 | 39.83151 | -75.20189 | 35078 ft | 506 kts | 48° |
| 2026-04-25 14:44 | 39.87282 | -75.12767 | 35062 ft | 506 kts | 48° |
| 2026-04-25 14:44 | 39.91405 | -75.05336 | 35070 ft | 506 kts | 47° |
| 2026-04-25 14:45 | 39.95522 | -74.97898 | 35067 ft | 505 kts | 48° |
| 2026-04-25 14:45 | 39.99558 | -74.90399 | 35066 ft | 506 kts | 50° |
| 2026-04-25 14:46 | 40.03428 | -74.82709 | 35069 ft | 506 kts | 50° |
| 2026-04-25 14:46 | 40.07281 | -74.75037 | 35072 ft | 505 kts | 50° |
| 2026-04-25 14:47 | 40.10500 | -74.68683 | 35072 ft | 503 kts | 50° |
| 2026-04-25 14:47 | 40.15003 | -74.59799 | 35069 ft | 500 kts | 50° |
| 2026-04-25 14:48 | 40.18900 | -74.52322 | 35076 ft | 493 kts | 44° |
| 2026-04-25 14:48 | 40.23497 | -74.45864 | 35086 ft | 480 kts | 33° |
| 2026-04-25 14:49 | 40.28649 | -74.40372 | 35100 ft | 476 kts | 31° |
| 2026-04-25 14:49 | 40.33849 | -74.34914 | 35101 ft | 476 kts | 31° |
| 2026-04-25 14:50 | 40.38995 | -74.29434 | 35104 ft | 477 kts | 32° |
| 2026-04-25 14:50 | 40.44137 | -74.23914 | 35113 ft | 478 kts | 32° |
| 2026-04-25 14:51 | 40.49278 | -74.18383 | 35117 ft | 478 kts | 32° |
| 2026-04-25 14:51 | 40.54391 | -74.12876 | 35108 ft | 478 kts | 32° |
| 2026-04-25 14:52 | 40.59525 | -74.07340 | 35135 ft | 478 kts | 32° |
| 2026-04-25 14:52 | 40.63843 | -74.02680 | 35136 ft | 478 kts | 32° |
| 2026-04-25 14:53 | 40.69813 | -73.96222 | 35139 ft | 477 kts | 32° |
| 2026-04-25 14:53 | 40.74934 | -73.90668 | 35110 ft | 477 kts | 32° |
| 2026-04-25 14:54 | 40.80056 | -73.85103 | 35119 ft | 476 kts | 32° |
| 2026-04-25 14:54 | 40.85311 | -73.79797 | 35110 ft | 467 kts | 24° |
| 2026-04-25 14:55 | 40.91012 | -73.75945 | 35120 ft | 454 kts | 13° |
| 2026-04-25 14:55 | 40.96936 | -73.73133 | 35119 ft | 452 kts | 12° |
| 2026-04-25 14:56 | 41.02860 | -73.70369 | 35113 ft | 451 kts | 12° |
| 2026-04-25 14:56 | 41.08776 | -73.67553 | 35113 ft | 452 kts | 12° |
| 2026-04-25 14:57 | 41.14673 | -73.64718 | 35113 ft | 451 kts | 12° |
| 2026-04-25 14:57 | 41.20579 | -73.61874 | 35118 ft | 451 kts | 12° |
| 2026-04-25 14:58 | 41.26505 | -73.59085 | 35135 ft | 448 kts | 8° |
| 2026-04-25 14:58 | 41.32536 | -73.57443 | 35131 ft | 437 kts | 359° |
| 2026-04-25 14:59 | 41.38588 | -73.56654 | 35138 ft | 437 kts | 358° |
| 2026-04-25 14:59 | 41.44644 | -73.55881 | 35129 ft | 438 kts | 358° |
| 2026-04-25 15:00 | 41.50699 | -73.55079 | 35142 ft | 437 kts | 359° |
| 2026-04-25 15:00 | 41.56756 | -73.54259 | 35134 ft | 437 kts | 359° |
| 2026-04-25 15:01 | 41.62845 | -73.53428 | 35135 ft | 437 kts | 359° |
| 2026-04-25 15:01 | 41.68890 | -73.52602 | 35117 ft | 436 kts | 359° |
| 2026-04-25 15:02 | 41.73906 | -73.51915 | 35107 ft | 436 kts | 359° |
| 2026-04-25 15:02 | 41.79947 | -73.51089 | 35112 ft | 436 kts | 359° |
| 2026-04-25 15:03 | 41.85991 | -73.50260 | 35097 ft | 436 kts | 359° |
| 2026-04-25 15:03 | 41.92025 | -73.49432 | 35091 ft | 436 kts | 359° |
| 2026-04-25 15:04 | 41.98059 | -73.48599 | 35089 ft | 436 kts | 359° |
| 2026-04-25 15:04 | 42.04132 | -73.47762 | 35088 ft | 435 kts | 359° |
| 2026-04-25 15:05 | 42.10114 | -73.46935 | 35079 ft | 435 kts | 359° |
| 2026-04-25 15:06 | 42.19184 | -73.45678 | 35074 ft | 435 kts | 359° |
| 2026-04-25 15:06 | 42.25197 | -73.44843 | 35082 ft | 434 kts | 359° |
| 2026-04-25 15:07 | 42.31210 | -73.44005 | 35084 ft | 434 kts | 359° |
| 2026-04-25 15:07 | 42.37224 | -73.43167 | 35083 ft | 435 kts | 359° |
| 2026-04-25 15:08 | 42.43251 | -73.42325 | 35097 ft | 436 kts | 359° |
| 2026-04-25 15:08 | 42.49282 | -73.41480 | 35086 ft | 436 kts | 359° |
| 2026-04-25 15:09 | 42.55338 | -73.40632 | 35082 ft | 437 kts | 359° |
| 2026-04-25 15:09 | 42.64412 | -73.39355 | 35104 ft | 437 kts | 358° |
| 2026-04-25 15:10 | 42.70456 | -73.38503 | 35109 ft | 436 kts | 358° |
| 2026-04-25 15:11 | 42.79511 | -73.37224 | 35102 ft | 436 kts | 358° |
| 2026-04-25 15:11 | 42.85541 | -73.36370 | 35109 ft | 437 kts | 358° |
| 2026-04-25 15:12 | 42.94647 | -73.35061 | 35100 ft | 437 kts | 0° |
| 2026-04-25 15:12 | 42.97614 | -73.34127 | 35103 ft | 449 kts | 10° |
| 2026-04-25 15:12 | 42.99592 | -73.33107 | 35110 ft | 454 kts | 15° |
| 2026-04-25 15:13 | 43.03375 | -73.30364 | 35098 ft | 468 kts | 26° |
| 2026-04-25 15:13 | 43.08582 | -73.24905 | 35106 ft | 474 kts | 30° |
| 2026-04-25 15:14 | 43.13730 | -73.19244 | 35101 ft | 474 kts | 30° |
| 2026-04-25 15:14 | 43.18898 | -73.13613 | 35109 ft | 475 kts | 30° |
| 2026-04-25 15:14 | 43.21534 | -73.10970 | 35081 ft | 462 kts | 20° |
| 2026-04-25 15:15 | 43.23438 | -73.09760 | 35100 ft | 448 kts | 9° |
| 2026-04-25 15:15 | 43.27428 | -73.08844 | 35109 ft | 428 kts | 353° |
| 2026-04-25 15:15 | 43.30359 | -73.09120 | 35107 ft | 418 kts | 345° |
| 2026-04-25 15:16 | 43.36117 | -73.10323 | 35110 ft | 420 kts | 345° |
| 2026-04-25 15:16 | 43.44828 | -73.12081 | 35098 ft | 423 kts | 345° |
| 2026-04-25 15:17 | 43.53592 | -73.13798 | 35110 ft | 425 kts | 345° |
| 2026-04-25 15:18 | 43.59442 | -73.14942 | 35102 ft | 425 kts | 345° |
| 2026-04-25 15:18 | 43.68215 | -73.16662 | 35112 ft | 424 kts | 345° |
| 2026-04-25 15:19 | 43.72114 | -73.17429 | 35104 ft | 423 kts | 345° |
| 2026-04-25 15:19 | 43.79914 | -73.18967 | 35099 ft | 423 kts | 345° |
| 2026-04-25 15:20 | 43.85740 | -73.20119 | 35099 ft | 422 kts | 345° |
| 2026-04-25 15:20 | 43.91550 | -73.21269 | 35108 ft | 422 kts | 345° |
| 2026-04-25 15:21 | 43.97371 | -73.22288 | 35091 ft | 426 kts | 354° |
| 2026-04-25 15:21 | 44.00344 | -73.21667 | 35115 ft | 443 kts | 10° |
| 2026-04-25 15:21 | 44.03214 | -73.19907 | 35125 ft | 458 kts | 22° |
| 2026-04-25 15:22 | 44.05856 | -73.17336 | 35102 ft | 473 kts | 34° |
| 2026-04-25 15:22 | 44.08031 | -73.13809 | 35130 ft | 486 kts | 46° |
| 2026-04-25 15:22 | 44.11847 | -73.05942 | 35131 ft | 493 kts | 49° |
| 2026-04-25 15:23 | 44.15614 | -72.97943 | 35130 ft | 494 kts | 48° |
| 2026-04-25 15:23 | 44.19453 | -72.90004 | 35136 ft | 493 kts | 47° |
| 2026-04-25 15:24 | 44.23321 | -72.82140 | 35161 ft | 491 kts | 47° |
| 2026-04-25 15:24 | 44.25904 | -72.76902 | 35152 ft | 489 kts | 47° |
| 2026-04-25 15:25 | 44.31010 | -72.66509 | 35154 ft | 487 kts | 47° |
| 2026-04-25 15:25 | 44.34845 | -72.58668 | 35160 ft | 484 kts | 47° |
| 2026-04-25 15:26 | 44.38607 | -72.50953 | 35147 ft | 483 kts | 47° |
| 2026-04-25 15:26 | 44.42404 | -72.43145 | 35128 ft | 481 kts | 47° |
| 2026-04-25 15:27 | 44.46158 | -72.35406 | 35131 ft | 480 kts | 47° |
| 2026-04-25 15:28 | 44.51761 | -72.23816 | 35139 ft | 479 kts | 47° |
| 2026-04-25 15:28 | 44.55488 | -72.16084 | 35135 ft | 479 kts | 47° |
| 2026-04-25 15:29 | 44.59205 | -72.08346 | 35141 ft | 478 kts | 47° |
| 2026-04-25 15:29 | 44.62911 | -72.00611 | 35138 ft | 477 kts | 47° |
| 2026-04-25 15:30 | 44.66607 | -71.92878 | 35134 ft | 477 kts | 47° |
| 2026-04-25 15:30 | 44.70299 | -71.85134 | 35139 ft | 477 kts | 47° |
| 2026-04-25 15:31 | 44.73981 | -71.77388 | 35142 ft | 477 kts | 47° |
| 2026-04-25 15:31 | 44.77665 | -71.69617 | 35135 ft | 477 kts | 47° |
| 2026-04-25 15:32 | 44.81344 | -71.61835 | 35143 ft | 477 kts | 47° |
| 2026-04-25 15:32 | 44.85032 | -71.54011 | 35152 ft | 476 kts | 47° |
| 2026-04-25 15:33 | 44.90521 | -71.42330 | 35150 ft | 477 kts | 47° |
| 2026-04-25 15:33 | 44.94174 | -71.34530 | 35153 ft | 476 kts | 47° |
| 2026-04-25 15:34 | 44.97820 | -71.26721 | 35151 ft | 476 kts | 47° |
| 2026-04-25 15:34 | 45.00258 | -71.21491 | 35143 ft | 476 kts | 47° |
| 2026-04-25 15:35 | 45.06300 | -71.08481 | 35151 ft | 476 kts | 47° |
| 2026-04-25 15:36 | 45.11944 | -70.97029 | 35154 ft | 464 kts | 39° |
| 2026-04-25 15:36 | 45.16343 | -70.90317 | 35139 ft | 461 kts | 37° |
| 2026-04-25 15:37 | 45.20744 | -70.83703 | 35148 ft | 461 kts | 38° |
| 2026-04-25 15:37 | 45.25134 | -70.77034 | 35153 ft | 462 kts | 38° |
| 2026-04-25 15:38 | 45.29499 | -70.70341 | 35147 ft | 463 kts | 38° |
| 2026-04-25 15:38 | 45.33878 | -70.63594 | 35135 ft | 465 kts | 38° |
| 2026-04-25 15:39 | 45.38255 | -70.56833 | 35136 ft | 465 kts | 39° |
| 2026-04-25 15:39 | 45.42634 | -70.50054 | 35148 ft | 466 kts | 39° |
| 2026-04-25 15:40 | 45.46277 | -70.44402 | 35150 ft | 466 kts | 39° |
| 2026-04-25 15:40 | 45.51408 | -70.36424 | 35154 ft | 468 kts | 39° |
| 2026-04-25 15:41 | 45.55809 | -70.29563 | 35143 ft | 469 kts | 40° |
| 2026-04-25 15:41 | 45.60212 | -70.22679 | 35144 ft | 470 kts | 40° |
| 2026-04-25 15:42 | 45.64614 | -70.15780 | 35138 ft | 470 kts | 41° |
| 2026-04-25 15:42 | 45.69018 | -70.08860 | 35136 ft | 470 kts | 41° |
| 2026-04-25 15:43 | 45.73419 | -70.01925 | 35134 ft | 470 kts | 41° |
| 2026-04-25 15:43 | 45.77839 | -69.94946 | 35136 ft | 470 kts | 42° |
| 2026-04-25 15:44 | 45.82222 | -69.88007 | 35131 ft | 469 kts | 42° |
| 2026-04-25 15:44 | 45.86595 | -69.81065 | 35131 ft | 469 kts | 42° |
| 2026-04-25 15:45 | 45.90965 | -69.74114 | 35121 ft | 469 kts | 42° |
| 2026-04-25 15:45 | 45.94586 | -69.68339 | 35132 ft | 468 kts | 43° |
| 2026-04-25 15:46 | 45.99674 | -69.60202 | 35124 ft | 468 kts | 43° |
| 2026-04-25 15:46 | 46.04019 | -69.53237 | 35127 ft | 467 kts | 43° |
| 2026-04-25 15:47 | 46.08355 | -69.46267 | 35122 ft | 467 kts | 43° |
| 2026-04-25 15:47 | 46.12686 | -69.39286 | 35126 ft | 467 kts | 43° |
| 2026-04-25 15:48 | 46.17008 | -69.32304 | 35125 ft | 467 kts | 44° |
| 2026-04-25 15:48 | 46.21328 | -69.25307 | 35122 ft | 467 kts | 44° |
| 2026-04-25 15:49 | 46.25641 | -69.18303 | 35103 ft | 467 kts | 44° |
| 2026-04-25 15:49 | 46.29953 | -69.11283 | 35126 ft | 466 kts | 44° |
| 2026-04-25 15:50 | 46.34256 | -69.04259 | 35117 ft | 466 kts | 44° |
| 2026-04-25 15:50 | 46.38582 | -68.97180 | 35109 ft | 466 kts | 45° |
| 2026-04-25 15:51 | 46.42151 | -68.91326 | 35112 ft | 466 kts | 45° |
| 2026-04-25 15:51 | 46.47159 | -68.83088 | 35121 ft | 466 kts | 45° |
| 2026-04-25 15:52 | 46.51445 | -68.76019 | 35117 ft | 466 kts | 45° |
| 2026-04-25 15:52 | 46.55720 | -68.68951 | 35120 ft | 466 kts | 45° |
| 2026-04-25 15:53 | 46.59996 | -68.61862 | 35125 ft | 466 kts | 46° |
| 2026-04-25 15:53 | 46.64267 | -68.54762 | 35122 ft | 466 kts | 46° |
| 2026-04-25 15:54 | 46.68529 | -68.47661 | 35121 ft | 465 kts | 46° |
| 2026-04-25 15:54 | 46.72780 | -68.40558 | 35117 ft | 465 kts | 46° |
| 2026-04-25 15:55 | 46.77016 | -68.33460 | 35116 ft | 464 kts | 46° |
| 2026-04-25 15:55 | 46.81248 | -68.26352 | 35102 ft | 463 kts | 47° |
| 2026-04-25 15:56 | 46.85468 | -68.19245 | 35089 ft | 463 kts | 47° |
| 2026-04-25 15:56 | 46.89677 | -68.12139 | 35085 ft | 462 kts | 47° |
| 2026-04-25 15:57 | 46.93874 | -68.05034 | 35083 ft | 461 kts | 47° |
| 2026-04-25 15:57 | 46.98090 | -67.97878 | 35082 ft | 461 kts | 47° |
| 2026-04-25 15:58 | 47.02267 | -67.90769 | 35089 ft | 460 kts | 47° |
| 2026-04-25 15:58 | 47.06430 | -67.83666 | 35090 ft | 459 kts | 47° |
| 2026-04-25 15:59 | 47.10591 | -67.76549 | 35092 ft | 459 kts | 47° |
| 2026-04-25 15:59 | 47.14742 | -67.69428 | 35093 ft | 458 kts | 47° |
| 2026-04-25 16:00 | 47.17512 | -67.64666 | 35091 ft | 458 kts | 47° |
| 2026-04-25 16:00 | 47.23008 | -67.55194 | 35080 ft | 457 kts | 47° |
| 2026-04-25 16:01 | 47.27126 | -67.48075 | 35088 ft | 456 kts | 47° |
| 2026-04-25 16:01 | 47.31231 | -67.40957 | 35092 ft | 456 kts | 48° |
| 2026-04-25 16:02 | 47.35335 | -67.33827 | 35099 ft | 455 kts | 48° |
| 2026-04-25 16:02 | 47.39392 | -67.26659 | 35083 ft | 455 kts | 49° |
| 2026-04-25 16:03 | 47.43327 | -67.19327 | 35089 ft | 455 kts | 50° |
| 2026-04-25 16:03 | 47.47237 | -67.11958 | 35091 ft | 456 kts | 50° |
| 2026-04-25 16:04 | 47.51154 | -67.04594 | 35084 ft | 456 kts | 50° |
| 2026-04-25 16:04 | 47.55112 | -66.97163 | 35090 ft | 457 kts | 50° |
| 2026-04-25 16:05 | 47.59046 | -66.89770 | 35086 ft | 457 kts | 50° |
| 2026-04-25 16:06 | 47.64947 | -66.78640 | 35084 ft | 459 kts | 50° |
| 2026-04-25 16:06 | 47.68885 | -66.71185 | 35087 ft | 459 kts | 50° |
| 2026-04-25 16:07 | 47.72825 | -66.63705 | 35076 ft | 460 kts | 50° |
| 2026-04-25 16:07 | 47.76095 | -66.57482 | 35082 ft | 460 kts | 50° |
| 2026-04-25 16:08 | 47.80029 | -66.49976 | 35080 ft | 460 kts | 50° |
| 2026-04-25 16:08 | 47.83956 | -66.42464 | 35082 ft | 459 kts | 50° |
| 2026-04-25 16:09 | 47.87870 | -66.34956 | 35080 ft | 459 kts | 50° |
| 2026-04-25 16:09 | 47.91779 | -66.27435 | 35076 ft | 458 kts | 50° |
| 2026-04-25 16:10 | 47.95699 | -66.19874 | 35071 ft | 458 kts | 50° |
| 2026-04-25 16:10 | 47.99563 | -66.12400 | 35068 ft | 457 kts | 51° |
| 2026-04-25 16:11 | 48.03459 | -66.04841 | 35055 ft | 456 kts | 51° |
| 2026-04-25 16:11 | 48.07319 | -65.97332 | 35058 ft | 455 kts | 51° |
| 2026-04-25 16:12 | 48.11170 | -65.89822 | 35049 ft | 455 kts | 51° |
| 2026-04-25 16:12 | 48.15010 | -65.82310 | 35055 ft | 455 kts | 51° |
| 2026-04-25 16:13 | 48.18856 | -65.74769 | 35045 ft | 455 kts | 51° |
| 2026-04-25 16:13 | 48.22695 | -65.67218 | 35051 ft | 456 kts | 51° |
| 2026-04-25 16:14 | 48.26536 | -65.59643 | 35042 ft | 456 kts | 51° |
| 2026-04-25 16:14 | 48.30376 | -65.52047 | 35048 ft | 457 kts | 51° |
| 2026-04-25 16:15 | 48.34212 | -65.44438 | 35100 ft | 458 kts | 51° |
| 2026-04-25 16:15 | 48.36133 | -65.40620 | 35208 ft | 458 kts | 51° |
| 2026-04-25 16:15 | 48.38059 | -65.36786 | 35247 ft | 460 kts | 51° |
| 2026-04-25 16:15 | 48.39983 | -65.32951 | 35444 ft | 457 kts | 51° |
| 2026-04-25 16:16 | 48.41893 | -65.29138 | 35589 ft | 456 kts | 51° |
| 2026-04-25 16:16 | 48.43804 | -65.25318 | 35706 ft | 456 kts | 51° |
| 2026-04-25 16:16 | 48.45713 | -65.21495 | 35844 ft | 456 kts | 51° |
| 2026-04-25 16:17 | 48.49530 | -65.13841 | 35997 ft | 458 kts | 51° |
| 2026-04-25 16:17 | 48.53372 | -65.06113 | 36037 ft | 457 kts | 51° |
| 2026-04-25 16:18 | 48.57169 | -64.98450 | 36040 ft | 454 kts | 51° |
| 2026-04-25 16:18 | 48.60943 | -64.90814 | 36050 ft | 453 kts | 51° |
| 2026-04-25 16:19 | 48.64700 | -64.83193 | 36041 ft | 452 kts | 52° |
| 2026-04-25 16:19 | 48.68445 | -64.75573 | 36053 ft | 452 kts | 52° |
| 2026-04-25 16:20 | 48.74065 | -64.64097 | 36051 ft | 453 kts | 52° |
| 2026-04-25 16:21 | 48.79688 | -64.52568 | 36048 ft | 454 kts | 52° |
| 2026-04-25 16:21 | 48.83435 | -64.44854 | 36054 ft | 455 kts | 52° |
| 2026-04-25 16:22 | 48.87189 | -64.37107 | 36046 ft | 455 kts | 52° |
| 2026-04-25 16:22 | 48.90938 | -64.29347 | 36045 ft | 456 kts | 52° |
| 2026-04-25 16:23 | 48.94682 | -64.21575 | 36036 ft | 456 kts | 52° |
| 2026-04-25 16:23 | 48.98416 | -64.13801 | 36036 ft | 455 kts | 52° |
| 2026-04-25 16:24 | 49.02175 | -64.05952 | 36030 ft | 455 kts | 52° |
| 2026-04-25 16:24 | 49.05896 | -63.98160 | 36030 ft | 455 kts | 52° |
| 2026-04-25 16:25 | 49.09611 | -63.90357 | 36007 ft | 455 kts | 53° |
| 2026-04-25 16:25 | 49.13321 | -63.82544 | 36009 ft | 454 kts | 53° |
| 2026-04-25 16:26 | 49.17023 | -63.74724 | 36002 ft | 454 kts | 53° |
| 2026-04-25 16:26 | 49.20719 | -63.66893 | 36002 ft | 454 kts | 53° |
| 2026-04-25 16:27 | 49.24411 | -63.59048 | 35993 ft | 454 kts | 53° |
| 2026-04-25 16:27 | 49.28093 | -63.51202 | 35992 ft | 453 kts | 53° |
| 2026-04-25 16:28 | 49.31764 | -63.43355 | 35988 ft | 453 kts | 53° |
| 2026-04-25 16:28 | 49.35430 | -63.35497 | 35991 ft | 453 kts | 53° |
| 2026-04-25 16:29 | 49.39085 | -63.27639 | 35984 ft | 452 kts | 53° |
| 2026-04-25 16:29 | 49.42733 | -63.19773 | 35986 ft | 452 kts | 54° |
| 2026-04-25 16:30 | 49.45784 | -63.13175 | 35979 ft | 452 kts | 54° |
| 2026-04-25 16:30 | 49.50004 | -63.04023 | 35982 ft | 451 kts | 54° |
| 2026-04-25 16:31 | 49.53626 | -62.96143 | 35977 ft | 451 kts | 54° |
| 2026-04-25 16:31 | 49.57266 | -62.88203 | 35979 ft | 451 kts | 54° |
| 2026-04-25 16:32 | 49.60872 | -62.80309 | 35980 ft | 450 kts | 54° |
| 2026-04-25 16:32 | 49.64477 | -62.72397 | 35976 ft | 451 kts | 54° |
| 2026-04-25 16:33 | 49.68075 | -62.64475 | 35960 ft | 451 kts | 54° |
| 2026-04-25 16:33 | 49.71664 | -62.56551 | 35962 ft | 450 kts | 54° |
| 2026-04-25 16:34 | 49.75244 | -62.48622 | 35952 ft | 450 kts | 54° |
| 2026-04-25 16:34 | 49.78816 | -62.40688 | 35948 ft | 449 kts | 55° |
| 2026-04-25 16:35 | 49.82382 | -62.32743 | 35941 ft | 449 kts | 55° |
| 2026-04-25 16:35 | 49.85936 | -62.24800 | 35937 ft | 448 kts | 55° |
| 2026-04-25 16:36 | 49.89487 | -62.16840 | 35928 ft | 448 kts | 55° |
| 2026-04-25 16:36 | 49.93025 | -62.08888 | 35926 ft | 448 kts | 55° |
| 2026-04-25 16:37 | 49.96559 | -62.00918 | 35914 ft | 448 kts | 55° |
| 2026-04-25 16:37 | 50.00087 | -61.92939 | 35915 ft | 448 kts | 55° |
| 2026-04-25 16:38 | 50.03606 | -61.84956 | 35906 ft | 448 kts | 56° |
| 2026-04-25 16:38 | 50.07145 | -61.76902 | 35909 ft | 448 kts | 56° |
| 2026-04-25 16:39 | 50.10634 | -61.68940 | 35908 ft | 448 kts | 56° |
| 2026-04-25 16:39 | 50.14161 | -61.60864 | 35907 ft | 448 kts | 56° |
| 2026-04-25 16:40 | 50.17070 | -61.54185 | 35901 ft | 448 kts | 56° |
| 2026-04-25 16:40 | 50.20562 | -61.46147 | 35907 ft | 448 kts | 56° |
| 2026-04-25 16:41 | 50.24640 | -61.36727 | 35901 ft | 447 kts | 56° |
| 2026-04-25 16:41 | 50.29271 | -61.25990 | 35896 ft | 447 kts | 56° |
| 2026-04-25 16:42 | 50.32737 | -61.17926 | 35897 ft | 447 kts | 57° |
| 2026-04-25 16:42 | 50.36196 | -61.09851 | 35900 ft | 446 kts | 57° |
| 2026-04-25 16:43 | 50.39647 | -61.01770 | 35894 ft | 446 kts | 57° |
| 2026-04-25 16:43 | 50.43091 | -60.93683 | 35903 ft | 446 kts | 57° |
| 2026-04-25 16:44 | 50.46547 | -60.85541 | 35893 ft | 445 kts | 57° |
| 2026-04-25 16:44 | 50.49973 | -60.77446 | 35895 ft | 445 kts | 57° |
| 2026-04-25 16:45 | 50.53395 | -60.69333 | 35897 ft | 445 kts | 57° |
| 2026-04-25 16:45 | 50.56807 | -60.61218 | 35890 ft | 445 kts | 57° |
| 2026-04-25 16:46 | 50.60213 | -60.53096 | 35892 ft | 445 kts | 58° |
| 2026-04-25 16:46 | 50.63039 | -60.46336 | 35889 ft | 445 kts | 58° |
| 2026-04-25 16:47 | 50.67004 | -60.36823 | 35890 ft | 444 kts | 58° |
| 2026-04-25 16:47 | 50.70389 | -60.28674 | 35891 ft | 444 kts | 58° |
| 2026-04-25 16:48 | 50.73764 | -60.20523 | 35889 ft | 443 kts | 58° |
| 2026-04-25 16:48 | 50.77118 | -60.12396 | 35886 ft | 443 kts | 58° |
| 2026-04-25 16:49 | 50.80491 | -60.04199 | 35886 ft | 443 kts | 58° |
| 2026-04-25 16:49 | 50.83842 | -59.96030 | 35886 ft | 442 kts | 58° |
| 2026-04-25 16:50 | 50.87205 | -59.87805 | 35882 ft | 442 kts | 59° |
| 2026-04-25 16:50 | 50.90539 | -59.79627 | 35877 ft | 442 kts | 59° |
| 2026-04-25 16:51 | 50.93866 | -59.71439 | 35881 ft | 442 kts | 59° |
| 2026-04-25 16:51 | 50.96628 | -59.64621 | 35876 ft | 442 kts | 59° |
| 2026-04-25 16:52 | 51.00504 | -59.55025 | 35871 ft | 442 kts | 59° |
| 2026-04-25 16:52 | 51.03810 | -59.46810 | 35864 ft | 441 kts | 59° |
| 2026-04-25 16:53 | 51.08759 | -59.34466 | 35866 ft | 441 kts | 59° |
| 2026-04-25 16:54 | 51.12044 | -59.26240 | 35855 ft | 441 kts | 60° |
| 2026-04-25 16:54 | 51.15324 | -59.17999 | 35858 ft | 440 kts | 60° |
| 2026-04-25 16:55 | 51.18597 | -59.09749 | 35857 ft | 440 kts | 60° |
| 2026-04-25 16:55 | 51.21858 | -59.01504 | 35857 ft | 440 kts | 60° |
| 2026-04-25 16:56 | 51.25137 | -58.93188 | 35848 ft | 440 kts | 60° |
| 2026-04-25 16:56 | 51.28385 | -58.84923 | 35840 ft | 439 kts | 60° |
| 2026-04-25 16:57 | 51.31626 | -58.76648 | 35834 ft | 439 kts | 60° |
| 2026-04-25 16:57 | 51.34858 | -58.68372 | 35837 ft | 439 kts | 60° |
| 2026-04-25 16:58 | 51.38078 | -58.60098 | 35832 ft | 438 kts | 60° |
| 2026-04-25 16:58 | 51.41296 | -58.51803 | 35827 ft | 438 kts | 61° |
| 2026-04-25 16:59 | 51.44503 | -58.43511 | 35827 ft | 438 kts | 61° |
| 2026-04-25 16:59 | 51.47703 | -58.35209 | 35827 ft | 437 kts | 61° |
| 2026-04-25 17:00 | 51.50898 | -58.26892 | 35824 ft | 438 kts | 61° |
| 2026-04-25 17:00 | 51.54083 | -58.18572 | 35815 ft | 438 kts | 61° |
| 2026-04-25 17:01 | 51.57265 | -58.10237 | 35823 ft | 437 kts | 61° |
| 2026-04-25 17:01 | 51.60441 | -58.01893 | 35824 ft | 437 kts | 61° |
| 2026-04-25 17:02 | 51.63609 | -57.93539 | 35817 ft | 438 kts | 62° |
| 2026-04-25 17:02 | 51.66774 | -57.85166 | 35814 ft | 438 kts | 62° |
| 2026-04-25 17:03 | 51.69934 | -57.76780 | 35813 ft | 438 kts | 62° |
| 2026-04-25 17:03 | 51.73090 | -57.68377 | 35817 ft | 438 kts | 62° |
| 2026-04-25 17:04 | 51.76258 | -57.59910 | 35813 ft | 438 kts | 62° |
| 2026-04-25 17:04 | 51.79403 | -57.51480 | 35817 ft | 438 kts | 62° |
| 2026-04-25 17:05 | 51.82538 | -57.43050 | 35808 ft | 437 kts | 62° |
| 2026-04-25 17:05 | 51.87223 | -57.30399 | 35808 ft | 437 kts | 62° |
| 2026-04-25 17:06 | 51.90334 | -57.21960 | 35811 ft | 437 kts | 62° |
| 2026-04-25 17:06 | 51.93441 | -57.13506 | 35827 ft | 436 kts | 62° |
| 2026-04-25 17:07 | 51.96539 | -57.05049 | 35829 ft | 436 kts | 62° |
| 2026-04-25 17:07 | 51.99628 | -56.96586 | 35825 ft | 436 kts | 62° |
| 2026-04-25 17:08 | 52.02713 | -56.88108 | 35828 ft | 436 kts | 62° |
| 2026-04-25 17:08 | 52.05792 | -56.79618 | 35830 ft | 436 kts | 62° |
| 2026-04-25 17:09 | 52.08866 | -56.71111 | 35828 ft | 437 kts | 62° |
| 2026-04-25 17:09 | 52.11942 | -56.62571 | 35832 ft | 438 kts | 62° |
| 2026-04-25 17:10 | 52.14811 | -56.54579 | 35830 ft | 438 kts | 62° |
| 2026-04-25 17:10 | 52.17882 | -56.45999 | 35831 ft | 439 kts | 62° |
| 2026-04-25 17:11 | 52.20968 | -56.37343 | 35833 ft | 440 kts | 62° |
| 2026-04-25 17:11 | 52.24041 | -56.28696 | 35822 ft | 441 kts | 62° |
| 2026-04-25 17:12 | 52.26586 | -56.21515 | 35809 ft | 440 kts | 62° |
| 2026-04-25 17:12 | 52.29636 | -56.12876 | 35804 ft | 438 kts | 62° |
| 2026-04-25 17:13 | 52.32180 | -56.05650 | 35802 ft | 440 kts | 62° |
| 2026-04-25 17:13 | 52.35779 | -55.95388 | 35807 ft | 454 kts | 62° |
| 2026-04-25 17:14 | 52.38817 | -55.86184 | 35796 ft | 458 kts | 68° |
| 2026-04-25 17:14 | 52.40927 | -55.76380 | 35792 ft | 454 kts | 77° |
| 2026-04-25 17:15 | 52.42236 | -55.66366 | 35790 ft | 447 kts | 79° |
| 2026-04-25 17:15 | 52.43462 | -55.56384 | 35791 ft | 447 kts | 79° |
| 2026-04-25 17:16 | 52.44695 | -55.46408 | 35788 ft | 447 kts | 79° |
| 2026-04-25 17:16 | 52.45940 | -55.36409 | 35776 ft | 448 kts | 79° |
| 2026-04-25 17:17 | 52.47187 | -55.26384 | 35762 ft | 450 kts | 79° |
| 2026-04-25 17:17 | 52.48432 | -55.16308 | 35753 ft | 451 kts | 79° |
| 2026-04-25 17:18 | 52.49671 | -55.06200 | 35738 ft | 452 kts | 79° |
| 2026-04-25 17:18 | 52.50902 | -54.96075 | 35731 ft | 453 kts | 79° |
| 2026-04-25 17:19 | 52.52128 | -54.85919 | 35722 ft | 454 kts | 79° |
| 2026-04-25 17:19 | 52.53354 | -54.75677 | 35710 ft | 454 kts | 79° |
| 2026-04-25 17:20 | 52.54564 | -54.65499 | 35710 ft | 454 kts | 79° |
| 2026-04-25 17:20 | 52.55763 | -54.55322 | 35719 ft | 454 kts | 79° |
| 2026-04-25 17:21 | 52.56958 | -54.45111 | 35691 ft | 455 kts | 79° |
| 2026-04-25 17:21 | 52.58143 | -54.34898 | 35696 ft | 455 kts | 79° |
| 2026-04-25 17:22 | 52.59120 | -54.26419 | 35694 ft | 455 kts | 79° |
| 2026-04-25 17:22 | 52.60486 | -54.14469 | 35693 ft | 455 kts | 79° |
| 2026-04-25 17:23 | 52.61645 | -54.04231 | 35677 ft | 456 kts | 79° |
| 2026-04-25 17:23 | 52.62798 | -53.93973 | 35675 ft | 456 kts | 79° |
| 2026-04-25 17:24 | 52.63943 | -53.83696 | 35659 ft | 457 kts | 79° |
| 2026-04-25 17:24 | 52.65077 | -53.73435 | 35656 ft | 458 kts | 80° |
| 2026-04-25 17:25 | 52.66208 | -53.63119 | 35664 ft | 458 kts | 80° |
| 2026-04-25 17:25 | 52.67330 | -53.52788 | 35656 ft | 458 kts | 80° |
| 2026-04-25 17:26 | 52.68444 | -53.42451 | 35651 ft | 459 kts | 80° |
| 2026-04-25 17:26 | 52.69551 | -53.32095 | 35653 ft | 459 kts | 80° |
| 2026-04-25 17:27 | 52.70656 | -53.21660 | 35658 ft | 459 kts | 80° |
| 2026-04-25 17:27 | 52.71378 | -53.14786 | 35644 ft | 460 kts | 80° |
| 2026-04-25 17:28 | 52.72828 | -53.00875 | 35635 ft | 460 kts | 80° |
| 2026-04-25 17:28 | 52.73902 | -52.90459 | 35636 ft | 461 kts | 80° |
| 2026-04-25 17:29 | 52.74967 | -52.80035 | 35634 ft | 461 kts | 80° |
| 2026-04-25 17:29 | 52.76024 | -52.69595 | 35629 ft | 461 kts | 80° |
| 2026-04-25 17:30 | 52.77072 | -52.59148 | 35625 ft | 462 kts | 80° |
| 2026-04-25 17:30 | 52.78113 | -52.48676 | 35620 ft | 462 kts | 80° |
| 2026-04-25 17:31 | 52.79145 | -52.38197 | 35615 ft | 462 kts | 80° |
| 2026-04-25 17:31 | 52.80168 | -52.27708 | 35610 ft | 463 kts | 81° |
| 2026-04-25 17:32 | 52.80676 | -52.22455 | 35755 ft | 463 kts | 79° |
| 2026-04-25 17:32 | 52.81184 | -52.17194 | 35691 ft | 465 kts | 79° |
| 2026-04-25 17:32 | 52.82200 | -52.06580 | 35613 ft | 470 kts | 80° |
| 2026-04-25 17:33 | 52.83223 | -51.95770 | 35607 ft | 472 kts | 80° |
| 2026-04-25 17:33 | 52.84227 | -51.85065 | 35598 ft | 471 kts | 80° |
| 2026-04-25 17:34 | 52.85224 | -51.74328 | 35600 ft | 473 kts | 80° |
| 2026-04-25 17:34 | 52.86209 | -51.63616 | 35593 ft | 472 kts | 81° |
| 2026-04-25 17:35 | 52.87188 | -51.52856 | 35585 ft | 473 kts | 80° |
| 2026-04-25 17:35 | 52.88158 | -51.42091 | 35592 ft | 474 kts | 81° |
| 2026-04-25 17:36 | 52.89117 | -51.31326 | 35590 ft | 471 kts | 81° |
| 2026-04-25 17:36 | 52.90059 | -51.20622 | 35584 ft | 469 kts | 81° |
| 2026-04-25 17:37 | 52.90998 | -51.09863 | 35585 ft | 474 kts | 81° |
| 2026-04-25 17:37 | 52.91921 | -50.99149 | 35566 ft | 465 kts | 81° |
| 2026-04-25 17:38 | 52.92527 | -50.92049 | 35577 ft | 466 kts | 81° |
| 2026-04-25 17:38 | 52.93742 | -50.77703 | 35577 ft | 473 kts | 81° |
| 2026-04-25 17:39 | 52.94641 | -50.66924 | 35573 ft | 469 kts | 81° |
| 2026-04-25 17:39 | 52.95523 | -50.56223 | 35569 ft | 470 kts | 81° |
| 2026-04-25 17:40 | 52.96405 | -50.45424 | 35572 ft | 474 kts | 82° |
| 2026-04-25 17:40 | 52.97277 | -50.34616 | 35553 ft | 471 kts | 82° |
| 2026-04-25 17:41 | 52.98133 | -50.23860 | 35560 ft | 469 kts | 82° |
| 2026-04-25 17:41 | 52.98983 | -50.13094 | 35566 ft | 473 kts | 82° |
| 2026-04-25 17:42 | 52.99827 | -50.02282 | 35544 ft | 469 kts | 82° |
| 2026-04-25 17:42 | 53.01131 | -49.91645 | 35565 ft | 472 kts | 76° |
| 2026-04-25 17:43 | 53.02686 | -49.81056 | 35549 ft | 471 kts | 76° |
| 2026-04-25 17:43 | 53.04228 | -49.70480 | 35549 ft | 471 kts | 76° |
| 2026-04-25 17:44 | 53.05496 | -49.61607 | 35554 ft | 473 kts | 77° |
| 2026-04-25 17:44 | 53.06996 | -49.50969 | 35543 ft | 471 kts | 77° |
| 2026-04-25 17:45 | 53.08233 | -49.42120 | 35552 ft | 473 kts | 77° |
| 2026-04-25 17:45 | 53.09960 | -49.29687 | 35543 ft | 472 kts | 77° |
| 2026-04-25 17:46 | 53.11432 | -49.19013 | 35550 ft | 474 kts | 77° |
| 2026-04-25 17:46 | 53.12891 | -49.08359 | 35533 ft | 468 kts | 77° |
| 2026-04-25 17:47 | 53.14316 | -48.97876 | 35537 ft | 461 kts | 77° |
| 2026-04-25 17:47 | 53.15709 | -48.87557 | 35536 ft | 453 kts | 77° |
| 2026-04-25 17:48 | 53.17785 | -48.72040 | 35544 ft | 459 kts | 78° |
| 2026-04-25 17:49 | 53.19160 | -48.61668 | 35538 ft | 454 kts | 78° |
| 2026-04-25 17:49 | 53.20527 | -48.51280 | 35551 ft | 461 kts | 78° |
| 2026-04-25 17:50 | 53.21883 | -48.40914 | 35542 ft | 456 kts | 78° |
| 2026-04-25 17:50 | 53.23231 | -48.30523 | 35536 ft | 457 kts | 78° |
| 2026-04-25 17:51 | 53.24567 | -48.20144 | 35550 ft | 459 kts | 78° |
| 2026-04-25 17:51 | 53.25899 | -48.09728 | 35532 ft | 457 kts | 78° |
| 2026-04-25 17:52 | 53.27219 | -47.99324 | 35547 ft | 459 kts | 78° |
| 2026-04-25 17:52 | 53.28535 | -47.88878 | 35539 ft | 459 kts | 79° |
| 2026-04-25 17:53 | 53.29840 | -47.78441 | 35538 ft | 459 kts | 79° |
| 2026-04-25 17:53 | 53.31135 | -47.67995 | 35538 ft | 459 kts | 79° |
| 2026-04-25 17:54 | 53.32420 | -47.57563 | 35542 ft | 458 kts | 79° |
| 2026-04-25 17:54 | 53.33701 | -47.47072 | 35544 ft | 461 kts | 79° |
| 2026-04-25 17:55 | 53.34989 | -47.36445 | 35553 ft | 466 kts | 79° |
| 2026-04-25 17:55 | 53.36275 | -47.25741 | 35541 ft | 471 kts | 79° |
| 2026-04-25 17:56 | 53.37561 | -47.14962 | 35544 ft | 473 kts | 79° |
| 2026-04-25 17:56 | 53.38840 | -47.04156 | 35548 ft | 473 kts | 79° |
| 2026-04-25 17:57 | 53.40105 | -46.93370 | 35540 ft | 471 kts | 80° |
| 2026-04-25 17:57 | 53.41356 | -46.82616 | 35537 ft | 469 kts | 80° |
| 2026-04-25 17:58 | 53.42592 | -46.71914 | 35535 ft | 467 kts | 80° |
| 2026-04-25 17:58 | 53.43812 | -46.61248 | 35542 ft | 465 kts | 80° |
| 2026-04-25 17:59 | 53.45021 | -46.50591 | 35546 ft | 465 kts | 80° |
| 2026-04-25 17:59 | 53.46219 | -46.39938 | 35548 ft | 465 kts | 80° |
| 2026-04-25 18:00 | 53.47210 | -46.31061 | 35553 ft | 466 kts | 81° |
| 2026-04-25 18:00 | 53.48597 | -46.18535 | 35551 ft | 468 kts | 81° |
| 2026-04-25 18:01 | 53.49774 | -46.07793 | 35553 ft | 469 kts | 81° |
| 2026-04-25 18:01 | 53.50948 | -45.96997 | 35557 ft | 470 kts | 81° |
| 2026-04-25 18:02 | 53.52111 | -45.86197 | 35557 ft | 470 kts | 81° |
| 2026-04-25 18:02 | 53.53266 | -45.75382 | 35556 ft | 470 kts | 81° |
| 2026-04-25 18:03 | 53.54419 | -45.64486 | 35559 ft | 470 kts | 81° |
| 2026-04-25 18:03 | 53.55554 | -45.53660 | 35557 ft | 470 kts | 81° |
| 2026-04-25 18:04 | 53.56679 | -45.42829 | 35571 ft | 470 kts | 82° |
| 2026-04-25 18:04 | 53.57792 | -45.32021 | 35567 ft | 469 kts | 82° |
| 2026-04-25 18:05 | 53.58896 | -45.21192 | 35568 ft | 469 kts | 82° |
| 2026-04-25 18:05 | 53.59990 | -45.10363 | 35578 ft | 469 kts | 82° |
| 2026-04-25 18:06 | 53.61072 | -44.99546 | 35575 ft | 469 kts | 82° |
| 2026-04-25 18:06 | 53.62146 | -44.88706 | 35578 ft | 469 kts | 82° |
| 2026-04-25 18:07 | 53.63209 | -44.77877 | 35575 ft | 469 kts | 82° |
| 2026-04-25 18:07 | 53.64263 | -44.67034 | 35583 ft | 469 kts | 82° |
| 2026-04-25 18:08 | 53.65307 | -44.56185 | 35579 ft | 469 kts | 83° |
| 2026-04-25 18:08 | 53.66342 | -44.45322 | 35582 ft | 470 kts | 83° |
| 2026-04-25 18:09 | 53.67369 | -44.34441 | 35587 ft | 470 kts | 83° |
| 2026-04-25 18:09 | 53.68386 | -44.23557 | 35589 ft | 470 kts | 83° |
| 2026-04-25 18:10 | 53.69230 | -44.14433 | 35594 ft | 470 kts | 83° |
| 2026-04-25 18:10 | 53.70396 | -44.01692 | 35595 ft | 470 kts | 83° |
| 2026-04-25 18:11 | 53.71384 | -43.90778 | 35600 ft | 471 kts | 83° |
| 2026-04-25 18:11 | 53.72364 | -43.79847 | 35606 ft | 471 kts | 83° |
| 2026-04-25 18:12 | 53.73334 | -43.68896 | 35603 ft | 471 kts | 84° |
| 2026-04-25 18:12 | 53.74294 | -43.57946 | 35605 ft | 471 kts | 84° |
| 2026-04-25 18:13 | 53.75245 | -43.46985 | 35607 ft | 472 kts | 84° |
| 2026-04-25 18:13 | 53.76186 | -43.36013 | 35617 ft | 472 kts | 84° |
| 2026-04-25 18:14 | 53.77579 | -43.19551 | 35616 ft | 472 kts | 84° |
| 2026-04-25 18:14 | 53.78495 | -43.08565 | 35619 ft | 472 kts | 84° |
| 2026-04-25 18:15 | 53.79400 | -42.97582 | 35625 ft | 472 kts | 84° |
| 2026-04-25 18:15 | 53.80298 | -42.86570 | 35629 ft | 473 kts | 85° |
| 2026-04-25 18:16 | 53.81185 | -42.75555 | 35632 ft | 473 kts | 85° |
| 2026-04-25 18:17 | 53.82359 | -42.60779 | 35637 ft | 474 kts | 85° |
| 2026-04-25 18:17 | 53.83225 | -42.49722 | 35640 ft | 474 kts | 85° |
| 2026-04-25 18:18 | 53.84082 | -42.38639 | 35639 ft | 475 kts | 85° |
| 2026-04-25 18:18 | 53.84930 | -42.27551 | 35646 ft | 475 kts | 85° |
| 2026-04-25 18:19 | 53.85767 | -42.16451 | 35647 ft | 475 kts | 86° |
| 2026-04-25 18:19 | 53.86595 | -42.05339 | 35648 ft | 475 kts | 86° |
| 2026-04-25 18:20 | 53.87413 | -41.94230 | 35652 ft | 475 kts | 86° |
| 2026-04-25 18:20 | 53.88219 | -41.83123 | 35653 ft | 475 kts | 86° |
| 2026-04-25 18:21 | 53.89016 | -41.71999 | 35658 ft | 475 kts | 86° |
| 2026-04-25 18:21 | 53.89807 | -41.60809 | 35660 ft | 475 kts | 86° |
| 2026-04-25 18:22 | 53.90583 | -41.49684 | 35665 ft | 475 kts | 87° |
| 2026-04-25 18:22 | 53.91348 | -41.38565 | 35670 ft | 475 kts | 87° |
| 2026-04-25 18:23 | 53.92104 | -41.27426 | 35667 ft | 475 kts | 87° |
| 2026-04-25 18:23 | 53.92849 | -41.16286 | 35677 ft | 475 kts | 87° |
| 2026-04-25 18:24 | 53.93584 | -41.05146 | 35679 ft | 475 kts | 87° |
| 2026-04-25 18:24 | 53.94310 | -40.93982 | 35681 ft | 476 kts | 87° |
| 2026-04-25 18:25 | 53.95025 | -40.82810 | 35683 ft | 476 kts | 88° |
| 2026-04-25 18:25 | 53.95730 | -40.71638 | 35693 ft | 476 kts | 88° |
| 2026-04-25 18:26 | 53.96426 | -40.60438 | 35690 ft | 477 kts | 88° |
| 2026-04-25 18:26 | 53.97112 | -40.49237 | 35686 ft | 477 kts | 88° |
| 2026-04-25 18:27 | 53.97788 | -40.38017 | 35697 ft | 477 kts | 88° |
| 2026-04-25 18:27 | 53.98453 | -40.26799 | 35705 ft | 478 kts | 88° |
| 2026-04-25 18:28 | 53.99109 | -40.15567 | 35708 ft | 478 kts | 88° |
| 2026-04-25 18:28 | 53.99759 | -40.04263 | 35706 ft | 478 kts | 88° |
| 2026-04-25 18:29 | 54.00574 | -39.87373 | 35711 ft | 477 kts | 90° |
| 2026-04-25 18:30 | 54.01413 | -39.64841 | 35720 ft | 478 kts | 90° |
| 2026-04-25 18:30 | 54.01838 | -39.53549 | 35721 ft | 479 kts | 90° |
| 2026-04-25 18:31 | 54.02260 | -39.42233 | 35727 ft | 479 kts | 90° |
| 2026-04-25 18:31 | 54.02672 | -39.30914 | 35727 ft | 480 kts | 90° |
| 2026-04-25 18:32 | 54.03073 | -39.19584 | 35733 ft | 480 kts | 90° |
| 2026-04-25 18:32 | 54.03464 | -39.08238 | 35736 ft | 481 kts | 90° |
| 2026-04-25 18:33 | 54.03843 | -38.96889 | 35731 ft | 481 kts | 91° |
| 2026-04-25 18:33 | 54.04212 | -38.85537 | 35746 ft | 481 kts | 91° |
| 2026-04-25 18:34 | 54.04571 | -38.74146 | 35739 ft | 482 kts | 91° |
| 2026-04-25 18:34 | 54.04919 | -38.62777 | 35747 ft | 482 kts | 91° |
| 2026-04-25 18:35 | 54.05258 | -38.51372 | 35756 ft | 482 kts | 91° |
| 2026-04-25 18:35 | 54.05587 | -38.39879 | 35746 ft | 483 kts | 91° |
| 2026-04-25 18:36 | 54.05904 | -38.28451 | 35749 ft | 484 kts | 91° |
| 2026-04-25 18:36 | 54.06211 | -38.17013 | 35763 ft | 484 kts | 91° |
| 2026-04-25 18:37 | 54.06507 | -38.05558 | 35766 ft | 485 kts | 91° |
| 2026-04-25 18:37 | 54.06792 | -37.94086 | 35766 ft | 485 kts | 91° |
| 2026-04-25 18:38 | 54.07067 | -37.82603 | 35763 ft | 486 kts | 91° |
| 2026-04-25 18:38 | 54.07332 | -37.71096 | 35769 ft | 486 kts | 91° |
| 2026-04-25 18:39 | 54.07584 | -37.59605 | 35772 ft | 487 kts | 92° |
| 2026-04-25 18:39 | 54.07827 | -37.48067 | 35777 ft | 487 kts | 92° |
| 2026-04-25 18:40 | 54.08059 | -37.36536 | 35774 ft | 487 kts | 92° |
| 2026-04-25 18:40 | 54.08280 | -37.24994 | 35777 ft | 488 kts | 92° |
| 2026-04-25 18:41 | 54.08490 | -37.13446 | 35782 ft | 488 kts | 92° |
| 2026-04-25 18:41 | 54.08689 | -37.01875 | 35787 ft | 489 kts | 92° |
| 2026-04-25 18:42 | 54.08816 | -36.94136 | 35788 ft | 489 kts | 92° |
| 2026-04-25 18:42 | 54.09055 | -36.78710 | 35800 ft | 490 kts | 92° |
| 2026-04-25 18:43 | 54.09223 | -36.67032 | 35796 ft | 490 kts | 92° |
| 2026-04-25 18:43 | 54.09378 | -36.55433 | 35794 ft | 490 kts | 92° |
| 2026-04-25 18:44 | 54.09522 | -36.43814 | 35799 ft | 491 kts | 92° |
| 2026-04-25 18:44 | 54.09655 | -36.32182 | 35805 ft | 491 kts | 92° |
| 2026-04-25 18:45 | 54.09777 | -36.20541 | 35808 ft | 492 kts | 92° |
| 2026-04-25 18:45 | 54.09888 | -36.08892 | 35813 ft | 492 kts | 92° |
| 2026-04-25 18:46 | 54.09987 | -35.97209 | 35816 ft | 493 kts | 93° |
| 2026-04-25 18:46 | 54.10076 | -35.85529 | 35818 ft | 493 kts | 93° |
| 2026-04-25 18:47 | 54.10153 | -35.73826 | 35823 ft | 494 kts | 93° |
| 2026-04-25 18:47 | 54.10219 | -35.62121 | 35827 ft | 494 kts | 93° |
| 2026-04-25 18:48 | 54.10274 | -35.50401 | 35828 ft | 495 kts | 93° |
| 2026-04-25 18:48 | 54.10317 | -35.38658 | 35835 ft | 495 kts | 93° |
| 2026-04-25 18:49 | 54.10349 | -35.26916 | 35835 ft | 496 kts | 93° |
| 2026-04-25 18:49 | 54.10367 | -35.17066 | 35838 ft | 496 kts | 93° |
| 2026-04-25 18:50 | 54.10378 | -35.05306 | 35845 ft | 497 kts | 93° |
| 2026-04-25 18:50 | 54.10377 | -34.93534 | 35848 ft | 497 kts | 93° |
| 2026-04-25 18:51 | 54.10368 | -34.83729 | 35846 ft | 498 kts | 93° |
| 2026-04-25 18:51 | 54.10342 | -34.69956 | 35846 ft | 498 kts | 93° |
| 2026-04-25 18:52 | 54.10306 | -34.58148 | 35854 ft | 498 kts | 94° |
| 2026-04-25 18:52 | 54.10260 | -34.46349 | 35852 ft | 499 kts | 94° |
| 2026-04-25 18:53 | 54.10201 | -34.34524 | 35856 ft | 499 kts | 94° |
| 2026-04-25 18:53 | 54.10131 | -34.22599 | 35860 ft | 500 kts | 94° |
| 2026-04-25 18:54 | 54.10003 | -34.04834 | 35866 ft | 500 kts | 94° |
| 2026-04-25 18:55 | 54.09904 | -33.92973 | 35865 ft | 501 kts | 94° |
| 2026-04-25 18:55 | 54.09793 | -33.81104 | 35871 ft | 501 kts | 94° |
| 2026-04-25 18:56 | 54.09670 | -33.69236 | 35873 ft | 501 kts | 94° |
| 2026-04-25 18:56 | 54.09535 | -33.57350 | 35875 ft | 502 kts | 94° |
| 2026-04-25 18:57 | 54.09389 | -33.45465 | 35879 ft | 502 kts | 94° |
| 2026-04-25 18:57 | 54.09231 | -33.33569 | 35881 ft | 502 kts | 94° |
| 2026-04-25 18:58 | 54.09061 | -33.21681 | 35878 ft | 502 kts | 94° |
| 2026-04-25 18:58 | 54.08783 | -33.03829 | 35893 ft | 503 kts | 94° |
| 2026-04-25 18:59 | 54.08372 | -32.80025 | 35893 ft | 503 kts | 94° |
| 2026-04-25 19:00 | 54.08034 | -32.62179 | 35893 ft | 503 kts | 94° |
| 2026-04-25 19:01 | 54.07666 | -32.44254 | 35893 ft | 503 kts | 94° |
| 2026-04-25 19:01 | 54.07408 | -32.32342 | 35894 ft | 504 kts | 94° |
| 2026-04-25 19:02 | 54.06997 | -32.14467 | 35902 ft | 504 kts | 94° |
| 2026-04-25 19:03 | 54.06661 | -32.00596 | 35906 ft | 504 kts | 95° |
| 2026-04-25 19:03 | 54.06253 | -31.84636 | 35902 ft | 505 kts | 95° |
| 2026-04-25 19:04 | 54.05771 | -31.66709 | 35905 ft | 506 kts | 95° |
| 2026-04-25 19:05 | 54.05085 | -31.42786 | 35913 ft | 507 kts | 95° |
| 2026-04-25 19:06 | 54.04721 | -31.30732 | 35918 ft | 507 kts | 95° |
| 2026-04-25 19:06 | 54.04156 | -31.12737 | 35916 ft | 508 kts | 95° |
| 2026-04-25 19:07 | 54.03563 | -30.94730 | 35922 ft | 509 kts | 95° |
| 2026-04-25 19:08 | 54.02943 | -30.76714 | 35919 ft | 509 kts | 95° |
| 2026-04-25 19:09 | 54.02147 | -30.54679 | 35927 ft | 510 kts | 95° |
| 2026-04-25 19:10 | 54.01386 | -30.34577 | 35931 ft | 511 kts | 95° |
| 2026-04-25 19:10 | 54.00914 | -30.22526 | 35933 ft | 511 kts | 96° |
| 2026-04-25 19:11 | 54.00431 | -30.10470 | 35936 ft | 511 kts | 96° |
| 2026-04-25 19:11 | 54.00042 | -29.98388 | 35936 ft | 513 kts | 91° |
| 2026-04-25 19:12 | 54.00458 | -29.86191 | 35948 ft | 514 kts | 86° |
| 2026-04-25 19:12 | 54.01004 | -29.74075 | 35945 ft | 514 kts | 86° |
| 2026-04-25 19:13 | 54.01516 | -29.61938 | 35943 ft | 515 kts | 87° |
| 2026-04-25 19:13 | 54.01985 | -29.49792 | 35941 ft | 515 kts | 87° |
| 2026-04-25 19:14 | 54.02431 | -29.37622 | 35938 ft | 515 kts | 87° |
| 2026-04-25 19:14 | 54.02865 | -29.25458 | 35943 ft | 515 kts | 88° |
| 2026-04-25 19:15 | 54.03288 | -29.13284 | 35950 ft | 516 kts | 88° |
| 2026-04-25 19:15 | 54.03700 | -29.01105 | 35953 ft | 516 kts | 88° |
| 2026-04-25 19:16 | 54.04100 | -28.88918 | 35953 ft | 516 kts | 88° |
| 2026-04-25 19:16 | 54.04488 | -28.76731 | 35957 ft | 516 kts | 88° |
| 2026-04-25 19:17 | 54.04863 | -28.64540 | 35950 ft | 516 kts | 88° |
| 2026-04-25 19:17 | 54.05229 | -28.52261 | 35952 ft | 516 kts | 88° |
| 2026-04-25 19:18 | 54.05580 | -28.40052 | 35954 ft | 516 kts | 88° |
| 2026-04-25 19:18 | 54.05918 | -28.27847 | 35953 ft | 516 kts | 88° |
| 2026-04-25 19:19 | 54.06245 | -28.15628 | 35959 ft | 517 kts | 88° |
| 2026-04-25 19:19 | 54.06559 | -28.03402 | 35956 ft | 517 kts | 88° |
| 2026-04-25 19:20 | 54.06860 | -27.91176 | 35962 ft | 517 kts | 88° |
| 2026-04-25 19:20 | 54.07150 | -27.78948 | 35962 ft | 517 kts | 88° |
| 2026-04-25 19:21 | 54.07427 | -27.66706 | 35958 ft | 517 kts | 88° |
| 2026-04-25 19:21 | 54.07820 | -27.48336 | 35959 ft | 518 kts | 88° |
| 2026-04-25 19:22 | 54.08027 | -27.38076 | 35962 ft | 518 kts | 89° |
| 2026-04-25 19:23 | 54.08376 | -27.19681 | 35969 ft | 518 kts | 89° |
| 2026-04-25 19:23 | 54.08697 | -27.01265 | 35968 ft | 519 kts | 89° |
| 2026-04-25 19:24 | 54.08896 | -26.88970 | 35958 ft | 519 kts | 89° |
| 2026-04-25 19:25 | 54.09257 | -26.64388 | 35964 ft | 519 kts | 89° |
| 2026-04-25 19:25 | 54.09419 | -26.52008 | 35970 ft | 519 kts | 89° |
| 2026-04-25 19:26 | 54.09568 | -26.39716 | 35971 ft | 519 kts | 89° |
| 2026-04-25 19:26 | 54.09704 | -26.27410 | 35966 ft | 519 kts | 89° |
| 2026-04-25 19:27 | 54.09808 | -26.17180 | 35967 ft | 519 kts | 89° |
| 2026-04-25 19:27 | 54.09939 | -26.02799 | 35968 ft | 519 kts | 90° |
| 2026-04-25 19:28 | 54.10038 | -25.90486 | 35971 ft | 520 kts | 90° |
| 2026-04-25 19:28 | 54.10124 | -25.78185 | 35972 ft | 520 kts | 90° |
| 2026-04-25 19:29 | 54.10197 | -25.65864 | 35970 ft | 520 kts | 90° |
| 2026-04-25 19:29 | 54.10258 | -25.53544 | 35976 ft | 520 kts | 90° |
| 2026-04-25 19:30 | 54.10307 | -25.41224 | 35970 ft | 520 kts | 90° |
| 2026-04-25 19:30 | 54.10343 | -25.28899 | 35979 ft | 520 kts | 90° |
| 2026-04-25 19:31 | 54.10366 | -25.16572 | 35965 ft | 520 kts | 90° |
| 2026-04-25 19:31 | 54.10377 | -25.04247 | 35969 ft | 520 kts | 90° |
| 2026-04-25 19:32 | 54.10375 | -24.91920 | 35984 ft | 520 kts | 91° |
| 2026-04-25 19:32 | 54.10363 | -24.81600 | 35982 ft | 520 kts | 91° |
| 2026-04-25 19:33 | 54.10333 | -24.67197 | 35970 ft | 520 kts | 91° |
| 2026-04-25 19:33 | 54.10293 | -24.54869 | 35976 ft | 520 kts | 91° |
| 2026-04-25 19:34 | 54.10241 | -24.42551 | 35982 ft | 520 kts | 91° |
| 2026-04-25 19:34 | 54.10176 | -24.30219 | 35985 ft | 520 kts | 91° |
| 2026-04-25 19:35 | 54.10098 | -24.17909 | 35986 ft | 520 kts | 91° |
| 2026-04-25 19:35 | 54.10008 | -24.05587 | 35981 ft | 520 kts | 91° |
| 2026-04-25 19:36 | 54.09905 | -23.93273 | 35978 ft | 520 kts | 92° |
| 2026-04-25 19:36 | 54.09790 | -23.80962 | 35989 ft | 520 kts | 92° |
| 2026-04-25 19:37 | 54.09663 | -23.68646 | 35990 ft | 520 kts | 92° |
| 2026-04-25 19:37 | 54.09522 | -23.56333 | 35989 ft | 520 kts | 92° |
| 2026-04-25 19:38 | 54.09369 | -23.44026 | 35989 ft | 520 kts | 92° |
| 2026-04-25 19:38 | 54.09203 | -23.31638 | 35988 ft | 520 kts | 92° |
| 2026-04-25 19:39 | 54.09025 | -23.19329 | 35992 ft | 519 kts | 93° |
| 2026-04-25 19:39 | 54.08834 | -23.07042 | 35993 ft | 519 kts | 93° |
| 2026-04-25 19:40 | 54.08631 | -22.94745 | 35992 ft | 519 kts | 93° |
| 2026-04-25 19:40 | 54.08416 | -22.82451 | 35997 ft | 519 kts | 93° |
| 2026-04-25 19:41 | 54.08188 | -22.70161 | 35995 ft | 519 kts | 94° |
| 2026-04-25 19:41 | 54.08028 | -22.61954 | 36001 ft | 519 kts | 94° |
| 2026-04-25 19:42 | 54.07695 | -22.45618 | 36000 ft | 518 kts | 94° |
| 2026-04-25 19:42 | 54.07430 | -22.33348 | 35998 ft | 518 kts | 94° |
| 2026-04-25 19:43 | 54.07152 | -22.21090 | 35999 ft | 518 kts | 94° |
| 2026-04-25 19:43 | 54.06862 | -22.08831 | 36005 ft | 518 kts | 94° |
| 2026-04-25 19:44 | 54.06560 | -21.96593 | 36009 ft | 518 kts | 94° |
| 2026-04-25 19:44 | 54.06245 | -21.84328 | 36000 ft | 518 kts | 95° |
| 2026-04-25 19:45 | 54.05918 | -21.72077 | 36007 ft | 518 kts | 95° |
| 2026-04-25 19:45 | 54.05576 | -21.59755 | 36015 ft | 518 kts | 95° |
| 2026-04-25 19:46 | 54.05224 | -21.47521 | 36010 ft | 518 kts | 95° |
| 2026-04-25 19:46 | 54.04860 | -21.35279 | 36013 ft | 517 kts | 95° |
| 2026-04-25 19:47 | 54.04483 | -21.23060 | 36022 ft | 517 kts | 95° |
| 2026-04-25 19:47 | 54.04095 | -21.10841 | 36020 ft | 517 kts | 95° |
| 2026-04-25 19:48 | 54.03694 | -20.98637 | 36024 ft | 517 kts | 95° |
| 2026-04-25 19:48 | 54.03281 | -20.86431 | 36026 ft | 517 kts | 96° |
| 2026-04-25 19:49 | 54.02997 | -20.78265 | 36026 ft | 516 kts | 96° |
| 2026-04-25 19:49 | 54.02418 | -20.62057 | 36034 ft | 516 kts | 96° |
| 2026-04-25 19:50 | 54.01740 | -20.43805 | 36035 ft | 515 kts | 96° |
| 2026-04-25 19:51 | 54.01271 | -20.31597 | 36041 ft | 514 kts | 96° |
| 2026-04-25 19:51 | 54.00792 | -20.19463 | 36041 ft | 514 kts | 96° |
| 2026-04-25 19:52 | 54.00304 | -20.07345 | 36046 ft | 513 kts | 96° |
| 2026-04-25 19:52 | 53.99993 | -19.97275 | 36045 ft | 515 kts | 92° |
| 2026-04-25 19:53 | 54.00208 | -19.85111 | 36055 ft | 515 kts | 90° |
| 2026-04-25 19:53 | 54.00497 | -19.72877 | 36054 ft | 515 kts | 90° |
| 2026-04-25 19:54 | 54.00747 | -19.60805 | 36056 ft | 514 kts | 90° |
| 2026-04-25 19:54 | 54.00960 | -19.48585 | 36058 ft | 514 kts | 91° |
| 2026-04-25 19:55 | 54.01151 | -19.36443 | 36058 ft | 513 kts | 91° |
| 2026-04-25 19:55 | 54.01330 | -19.24314 | 36065 ft | 513 kts | 91° |
| 2026-04-25 19:56 | 54.01499 | -19.12201 | 36066 ft | 512 kts | 91° |
| 2026-04-25 19:56 | 54.01655 | -19.00117 | 36065 ft | 512 kts | 91° |
| 2026-04-25 19:57 | 54.01800 | -18.88016 | 36070 ft | 511 kts | 91° |
| 2026-04-25 19:57 | 54.01933 | -18.75928 | 36072 ft | 511 kts | 91° |
| 2026-04-25 19:58 | 54.02053 | -18.63856 | 36078 ft | 510 kts | 91° |
| 2026-04-25 19:58 | 54.02161 | -18.51798 | 36080 ft | 510 kts | 91° |
| 2026-04-25 19:59 | 54.02257 | -18.39745 | 36080 ft | 510 kts | 92° |
| 2026-04-25 19:59 | 54.02340 | -18.27707 | 36085 ft | 509 kts | 92° |
| 2026-04-25 20:00 | 54.02412 | -18.15665 | 36086 ft | 509 kts | 92° |
| 2026-04-25 20:00 | 54.02471 | -18.03640 | 36082 ft | 508 kts | 92° |
| 2026-04-25 20:01 | 54.02538 | -17.85625 | 36094 ft | 508 kts | 92° |
| 2026-04-25 20:01 | 54.02568 | -17.73529 | 36093 ft | 508 kts | 92° |
| 2026-04-25 20:02 | 54.02585 | -17.61532 | 36094 ft | 507 kts | 92° |
| 2026-04-25 20:02 | 54.02591 | -17.49541 | 36097 ft | 507 kts | 92° |
| 2026-04-25 20:03 | 54.02584 | -17.37567 | 36097 ft | 506 kts | 92° |
| 2026-04-25 20:03 | 54.02566 | -17.25596 | 36101 ft | 506 kts | 93° |
| 2026-04-25 20:04 | 54.02536 | -17.13639 | 36110 ft | 506 kts | 93° |
| 2026-04-25 20:04 | 54.02494 | -17.01661 | 36113 ft | 506 kts | 93° |
| 2026-04-25 20:05 | 54.02440 | -16.89695 | 36103 ft | 506 kts | 93° |
| 2026-04-25 20:05 | 54.02374 | -16.77726 | 36116 ft | 506 kts | 93° |
| 2026-04-25 20:06 | 54.02297 | -16.65772 | 36108 ft | 506 kts | 94° |
| 2026-04-25 20:06 | 54.02206 | -16.53718 | 36120 ft | 506 kts | 94° |
| 2026-04-25 20:07 | 54.02105 | -16.41758 | 36123 ft | 506 kts | 94° |
| 2026-04-25 20:07 | 54.01992 | -16.29786 | 36124 ft | 506 kts | 94° |
| 2026-04-25 20:08 | 54.01866 | -16.17799 | 36128 ft | 507 kts | 94° |
| 2026-04-25 20:08 | 54.01729 | -16.05824 | 36130 ft | 507 kts | 94° |
| 2026-04-25 20:09 | 54.01579 | -15.93829 | 36130 ft | 507 kts | 94° |
| 2026-04-25 20:09 | 54.01418 | -15.81839 | 36134 ft | 508 kts | 95° |
| 2026-04-25 20:10 | 54.01245 | -15.69844 | 36137 ft | 508 kts | 95° |
| 2026-04-25 20:10 | 54.01059 | -15.57839 | 36141 ft | 508 kts | 95° |
| 2026-04-25 20:11 | 54.00862 | -15.45823 | 36141 ft | 508 kts | 95° |
| 2026-04-25 20:11 | 54.00651 | -15.33740 | 36141 ft | 508 kts | 95° |
| 2026-04-25 20:12 | 54.00430 | -15.21725 | 36140 ft | 508 kts | 95° |
| 2026-04-25 20:12 | 54.00277 | -15.13771 | 36149 ft | 508 kts | 95° |
| 2026-04-25 20:13 | 53.99960 | -14.97697 | 36154 ft | 509 kts | 95° |
| 2026-04-25 20:13 | 53.99958 | -14.85662 | 36153 ft | 510 kts | 92° |
| 2026-04-25 20:14 | 54.00053 | -14.73622 | 36158 ft | 510 kts | 92° |
| 2026-04-25 20:14 | 54.00101 | -14.61576 | 36159 ft | 509 kts | 93° |
| 2026-04-25 20:15 | 54.00107 | -14.49557 | 36154 ft | 509 kts | 93° |
| 2026-04-25 20:15 | 54.00097 | -14.37524 | 36159 ft | 509 kts | 93° |
| 2026-04-25 20:16 | 54.00077 | -14.25513 | 36163 ft | 508 kts | 93° |
| 2026-04-25 20:16 | 54.00047 | -14.13484 | 36190 ft | 509 kts | 94° |
| 2026-04-25 20:17 | 54.00029 | -14.07467 | 36320 ft | 509 kts | 94° |
| 2026-04-25 20:17 | 54.00007 | -14.01461 | 36516 ft | 509 kts | 94° |
| 2026-04-25 20:17 | 53.99961 | -13.95452 | 36763 ft | 508 kts | 94° |
| 2026-04-25 20:17 | 53.99861 | -13.89467 | 37006 ft | 505 kts | 95° |
| 2026-04-25 20:18 | 53.99590 | -13.77440 | 37141 ft | 507 kts | 95° |
| 2026-04-25 20:18 | 53.99307 | -13.65485 | 37168 ft | 506 kts | 95° |
| 2026-04-25 20:19 | 53.99034 | -13.53555 | 37169 ft | 504 kts | 95° |
| 2026-04-25 20:19 | 53.98760 | -13.41652 | 37174 ft | 503 kts | 95° |
| 2026-04-25 20:20 | 53.98476 | -13.29781 | 37181 ft | 503 kts | 95° |
| 2026-04-25 20:20 | 53.98179 | -13.17915 | 37186 ft | 503 kts | 95° |
| 2026-04-25 20:21 | 53.97870 | -13.06040 | 37182 ft | 503 kts | 95° |
| 2026-04-25 20:21 | 53.97548 | -12.94143 | 37187 ft | 504 kts | 95° |
| 2026-04-25 20:22 | 53.97326 | -12.86197 | 37186 ft | 504 kts | 95° |
| 2026-04-25 20:22 | 53.96868 | -12.70342 | 37189 ft | 505 kts | 95° |
| 2026-04-25 20:23 | 53.96511 | -12.58430 | 37189 ft | 505 kts | 96° |
| 2026-04-25 20:23 | 53.96141 | -12.46512 | 37194 ft | 505 kts | 96° |
| 2026-04-25 20:24 | 53.95760 | -12.34604 | 37190 ft | 505 kts | 96° |
| 2026-04-25 20:24 | 53.95431 | -12.24633 | 37194 ft | 505 kts | 96° |
| 2026-04-25 20:25 | 53.95028 | -12.12723 | 37189 ft | 505 kts | 96° |
| 2026-04-25 20:25 | 53.94614 | -12.00833 | 37196 ft | 505 kts | 96° |
| 2026-04-25 20:26 | 53.94188 | -11.88947 | 37196 ft | 504 kts | 96° |
| 2026-04-25 20:26 | 53.93750 | -11.77066 | 37196 ft | 504 kts | 96° |
| 2026-04-25 20:27 | 53.93301 | -11.65186 | 37194 ft | 504 kts | 96° |
| 2026-04-25 20:27 | 53.92840 | -11.53318 | 37201 ft | 504 kts | 96° |
| 2026-04-25 20:28 | 53.92368 | -11.41448 | 37200 ft | 504 kts | 96° |
| 2026-04-25 20:28 | 53.91883 | -11.29582 | 37202 ft | 504 kts | 96° |
| 2026-04-25 20:29 | 53.91384 | -11.17639 | 37200 ft | 504 kts | 96° |
| 2026-04-25 20:29 | 53.90877 | -11.05785 | 37201 ft | 504 kts | 96° |
| 2026-04-25 20:30 | 53.90357 | -10.93933 | 37204 ft | 504 kts | 96° |
| 2026-04-25 20:30 | 53.89826 | -10.82074 | 37203 ft | 504 kts | 96° |
| 2026-04-25 20:31 | 53.89283 | -10.70213 | 37202 ft | 504 kts | 96° |
| 2026-04-25 20:31 | 53.88728 | -10.58363 | 37204 ft | 504 kts | 96° |
| 2026-04-25 20:32 | 53.88162 | -10.46520 | 37209 ft | 504 kts | 97° |
| 2026-04-25 20:32 | 53.87584 | -10.34672 | 37208 ft | 504 kts | 97° |
| 2026-04-25 20:33 | 53.86995 | -10.22836 | 37209 ft | 504 kts | 97° |
| 2026-04-25 20:33 | 53.86492 | -10.12915 | 37213 ft | 504 kts | 97° |
| 2026-04-25 20:34 | 53.85781 | -9.99165 | 37212 ft | 504 kts | 97° |
| 2026-04-25 20:34 | 53.85157 | -9.87332 | 37212 ft | 504 kts | 97° |
| 2026-04-25 20:35 | 53.84516 | -9.75423 | 37211 ft | 504 kts | 97° |
| 2026-04-25 20:35 | 53.83869 | -9.63606 | 37206 ft | 504 kts | 97° |
| 2026-04-25 20:36 | 53.83209 | -9.51788 | 37207 ft | 504 kts | 97° |
| 2026-04-25 20:36 | 53.82539 | -9.39991 | 37204 ft | 504 kts | 97° |
| 2026-04-25 20:37 | 53.81856 | -9.28176 | 37206 ft | 504 kts | 97° |
| 2026-04-25 20:37 | 53.81164 | -9.16389 | 37204 ft | 503 kts | 97° |
| 2026-04-25 20:38 | 53.80459 | -9.04605 | 37206 ft | 503 kts | 97° |
| 2026-04-25 20:38 | 53.79743 | -8.92832 | 37200 ft | 503 kts | 97° |
| 2026-04-25 20:39 | 53.79018 | -8.81083 | 37200 ft | 502 kts | 97° |
| 2026-04-25 20:39 | 53.78400 | -8.71243 | 37200 ft | 502 kts | 97° |
| 2026-04-25 20:40 | 53.77531 | -8.57593 | 37198 ft | 502 kts | 98° |
| 2026-04-25 20:40 | 53.76771 | -8.45867 | 37191 ft | 501 kts | 98° |
| 2026-04-25 20:41 | 53.76000 | -8.34152 | 37193 ft | 501 kts | 98° |
| 2026-04-25 20:41 | 53.75213 | -8.22367 | 37188 ft | 501 kts | 98° |
| 2026-04-25 20:42 | 53.74420 | -8.10670 | 37185 ft | 501 kts | 98° |
| 2026-04-25 20:42 | 53.73616 | -7.98982 | 37183 ft | 501 kts | 98° |
| 2026-04-25 20:43 | 53.72801 | -7.87306 | 37181 ft | 501 kts | 98° |
| 2026-04-25 20:43 | 53.71975 | -7.75626 | 37179 ft | 501 kts | 98° |
| 2026-04-25 20:44 | 53.71136 | -7.63946 | 37185 ft | 501 kts | 98° |
| 2026-04-25 20:44 | 53.70287 | -7.52280 | 37179 ft | 501 kts | 98° |
| 2026-04-25 20:45 | 53.69427 | -7.40618 | 37180 ft | 501 kts | 98° |
| 2026-04-25 20:45 | 53.68556 | -7.28974 | 37177 ft | 500 kts | 98° |
| 2026-04-25 20:46 | 53.67673 | -7.17333 | 37183 ft | 500 kts | 98° |
| 2026-04-25 20:46 | 53.66780 | -7.05694 | 37180 ft | 500 kts | 99° |
| 2026-04-25 20:47 | 53.65876 | -6.94071 | 37180 ft | 500 kts | 99° |
| 2026-04-25 20:47 | 53.64960 | -6.82456 | 37185 ft | 500 kts | 99° |
| 2026-04-25 20:48 | 53.64034 | -6.70855 | 37183 ft | 500 kts | 99° |
| 2026-04-25 20:48 | 53.63097 | -6.59254 | 37186 ft | 500 kts | 99° |
| 2026-04-25 20:49 | 53.62141 | -6.47570 | 37205 ft | 500 kts | 99° |
| 2026-04-25 20:49 | 53.61181 | -6.35974 | 37201 ft | 500 kts | 99° |
| 2026-04-25 20:50 | 53.60209 | -6.24380 | 37198 ft | 500 kts | 99° |
| 2026-04-25 20:50 | 53.59227 | -6.12802 | 37200 ft | 500 kts | 99° |
| 2026-04-25 20:51 | 53.58233 | -6.01217 | 37210 ft | 500 kts | 99° |
| 2026-04-25 20:51 | 53.57819 | -5.89546 | 37215 ft | 501 kts | 91° |
| 2026-04-25 20:52 | 53.57881 | -5.81696 | 37207 ft | 501 kts | 89° |
| 2026-04-25 20:52 | 53.58157 | -5.66108 | 37212 ft | 501 kts | 89° |
| 2026-04-25 20:53 | 53.58260 | -5.54412 | 37194 ft | 498 kts | 98° |
| 2026-04-25 20:53 | 53.57468 | -5.48776 | 37225 ft | 493 kts | 113° |
| 2026-04-25 20:53 | 53.55926 | -5.43670 | 37203 ft | 489 kts | 128° |
| 2026-04-25 20:54 | 53.51898 | -5.34625 | 37216 ft | 490 kts | 118° |
| 2026-04-25 20:54 | 53.50672 | -5.29245 | 37230 ft | 497 kts | 106° |
| 2026-04-25 20:54 | 53.50130 | -5.23402 | 37220 ft | 502 kts | 92° |
| 2026-04-25 20:55 | 53.50645 | -5.11705 | 37228 ft | 503 kts | 85° |
| 2026-04-25 20:55 | 53.51033 | -4.99992 | 37217 ft | 502 kts | 93° |
| 2026-04-25 20:56 | 53.50482 | -4.90329 | 37223 ft | 501 kts | 98° |
| 2026-04-25 20:56 | 53.49619 | -4.78709 | 37208 ft | 499 kts | 98° |
| 2026-04-25 20:57 | 53.48803 | -4.67147 | 37210 ft | 498 kts | 97° |
| 2026-04-25 20:57 | 53.48032 | -4.55617 | 37215 ft | 496 kts | 97° |
| 2026-04-25 20:58 | 53.47265 | -4.44110 | 37214 ft | 495 kts | 97° |
| 2026-04-25 20:58 | 53.46482 | -4.32564 | 37215 ft | 494 kts | 97° |
| 2026-04-25 20:59 | 53.45690 | -4.21105 | 37217 ft | 494 kts | 97° |
| 2026-04-25 20:59 | 53.44887 | -4.09669 | 37219 ft | 494 kts | 98° |
| 2026-04-25 21:00 | 53.44211 | -4.00157 | 37219 ft | 494 kts | 98° |
| 2026-04-25 21:01 | 53.42831 | -3.81054 | 37224 ft | 494 kts | 98° |
| 2026-04-25 21:01 | 53.41991 | -3.69614 | 37229 ft | 495 kts | 98° |
| 2026-04-25 21:02 | 53.41185 | -3.58152 | 37216 ft | 495 kts | 96° |
| 2026-04-25 21:02 | 53.40668 | -3.46631 | 37220 ft | 496 kts | 95° |
| 2026-04-25 21:03 | 53.40191 | -3.35109 | 37224 ft | 496 kts | 95° |
| 2026-04-25 21:03 | 53.39671 | -3.23599 | 37228 ft | 496 kts | 95° |
| 2026-04-25 21:04 | 53.39132 | -3.12086 | 37233 ft | 495 kts | 95° |
| 2026-04-25 21:04 | 53.38682 | -3.00578 | 37238 ft | 495 kts | 94° |
| 2026-04-25 21:05 | 53.38269 | -2.89053 | 37239 ft | 495 kts | 94° |
| 2026-04-25 21:05 | 53.37833 | -2.77545 | 37239 ft | 495 kts | 94° |
| 2026-04-25 21:06 | 53.37375 | -2.66050 | 37236 ft | 494 kts | 94° |
| 2026-04-25 21:06 | 53.36903 | -2.54499 | 37232 ft | 494 kts | 94° |
| 2026-04-25 21:07 | 53.36423 | -2.43023 | 37239 ft | 494 kts | 95° |
| 2026-04-25 21:07 | 53.35935 | -2.31552 | 37240 ft | 494 kts | 95° |
| 2026-04-25 21:08 | 53.35163 | -2.20139 | 37243 ft | 493 kts | 100° |
| 2026-04-25 21:08 | 53.33968 | -2.08857 | 37243 ft | 493 kts | 101° |
| 2026-04-25 21:09 | 53.32166 | -1.91923 | 37243 ft | 493 kts | 100° |
| 2026-04-25 21:09 | 53.30985 | -1.80636 | 37247 ft | 493 kts | 100° |
| 2026-04-25 21:10 | 53.29796 | -1.69360 | 37254 ft | 492 kts | 100° |
| 2026-04-25 21:10 | 53.28592 | -1.58096 | 37261 ft | 492 kts | 101° |
| 2026-04-25 21:11 | 53.27370 | -1.46790 | 37263 ft | 491 kts | 101° |
| 2026-04-25 21:11 | 53.26146 | -1.35568 | 37261 ft | 491 kts | 101° |
| 2026-04-25 21:12 | 53.24914 | -1.24349 | 37262 ft | 491 kts | 101° |
| 2026-04-25 21:12 | 53.23884 | -1.15051 | 37262 ft | 490 kts | 101° |
| 2026-04-25 21:13 | 53.22422 | -1.01977 | 37266 ft | 490 kts | 101° |
| 2026-04-25 21:13 | 53.21163 | -0.90801 | 37277 ft | 490 kts | 101° |
| 2026-04-25 21:14 | 53.19892 | -0.79652 | 37280 ft | 489 kts | 101° |
| 2026-04-25 21:14 | 53.18609 | -0.68511 | 37293 ft | 489 kts | 101° |
| 2026-04-25 21:15 | 53.17316 | -0.57376 | 37293 ft | 489 kts | 101° |
| 2026-04-25 21:15 | 53.16017 | -0.46267 | 37291 ft | 489 kts | 101° |
| 2026-04-25 21:16 | 53.14707 | -0.35157 | 37293 ft | 489 kts | 101° |
| 2026-04-25 21:16 | 53.13386 | -0.24052 | 37293 ft | 489 kts | 102° |
| 2026-04-25 21:17 | 53.12045 | -0.12872 | 37296 ft | 489 kts | 102° |
| 2026-04-25 21:17 | 53.10704 | -0.01790 | 37298 ft | 489 kts | 102° |
| 2026-04-25 21:18 | 53.09352 | 0.09300 | 37287 ft | 489 kts | 102° |
| 2026-04-25 21:18 | 53.07989 | 0.20382 | 37279 ft | 489 kts | 102° |
| 2026-04-25 21:19 | 53.06613 | 0.31478 | 37275 ft | 490 kts | 102° |
| 2026-04-25 21:19 | 53.05227 | 0.42567 | 37271 ft | 491 kts | 102° |
| 2026-04-25 21:20 | 53.04293 | 0.49997 | 37273 ft | 491 kts | 102° |
| 2026-04-25 21:20 | 53.02418 | 0.64777 | 37280 ft | 491 kts | 102° |
| 2026-04-25 21:21 | 53.01000 | 0.75858 | 37285 ft | 491 kts | 102° |
| 2026-04-25 21:21 | 52.99572 | 0.86937 | 37288 ft | 491 kts | 102° |
| 2026-04-25 21:22 | 52.98126 | 0.97991 | 37291 ft | 490 kts | 103° |
| 2026-04-25 21:22 | 52.96020 | 1.08745 | 37299 ft | 490 kts | 110° |
| 2026-04-25 21:23 | 52.93574 | 1.19297 | 37294 ft | 490 kts | 111° |
| 2026-04-25 21:23 | 52.91127 | 1.29857 | 37292 ft | 491 kts | 111° |
| 2026-04-25 21:24 | 52.88703 | 1.40417 | 37293 ft | 490 kts | 110° |
| 2026-04-25 21:24 | 52.86269 | 1.51033 | 37290 ft | 490 kts | 110° |
| 2026-04-25 21:25 | 52.83844 | 1.61562 | 37292 ft | 489 kts | 111° |
| 2026-04-25 21:25 | 52.81410 | 1.72068 | 37287 ft | 489 kts | 111° |
| 2026-04-25 21:26 | 52.78969 | 1.82548 | 37288 ft | 489 kts | 111° |
| 2026-04-25 21:26 | 52.76518 | 1.93022 | 37289 ft | 488 kts | 111° |
| 2026-04-25 21:27 | 52.74063 | 2.03460 | 37291 ft | 488 kts | 111° |
| 2026-04-25 21:27 | 52.71596 | 2.13900 | 37287 ft | 488 kts | 111° |
| 2026-04-25 21:28 | 52.69121 | 2.24322 | 37285 ft | 488 kts | 111° |
| 2026-04-25 21:28 | 52.67055 | 2.32985 | 37292 ft | 489 kts | 111° |
| 2026-04-25 21:29 | 52.64558 | 2.43409 | 37287 ft | 490 kts | 111° |
| 2026-04-25 21:29 | 52.62040 | 2.53872 | 37287 ft | 491 kts | 111° |
| 2026-04-25 21:30 | 52.59501 | 2.64369 | 37287 ft | 493 kts | 111° |
| 2026-04-25 21:30 | 52.57384 | 2.73090 | 37285 ft | 496 kts | 111° |
| 2026-04-25 21:31 | 52.54428 | 2.85422 | 37272 ft | 493 kts | 108° |
| 2026-04-25 21:31 | 52.52419 | 2.96221 | 37283 ft | 496 kts | 106° |
| 2026-04-25 21:32 | 52.50472 | 3.07063 | 37253 ft | 494 kts | 106° |
| 2026-04-25 21:32 | 52.49490 | 3.12483 | 36888 ft | 498 kts | 106° |
| 2026-04-25 21:32 | 52.48492 | 3.17935 | 36488 ft | 499 kts | 106° |
| 2026-04-25 21:33 | 52.47490 | 3.23359 | 36112 ft | 494 kts | 106° |
| 2026-04-25 21:33 | 52.46495 | 3.28716 | 35732 ft | 488 kts | 107° |
| 2026-04-25 21:33 | 52.45508 | 3.34002 | 35367 ft | 485 kts | 107° |
| 2026-04-25 21:33 | 52.44519 | 3.39287 | 35003 ft | 483 kts | 107° |
| 2026-04-25 21:34 | 52.43538 | 3.44515 | 34634 ft | 477 kts | 107° |
| 2026-04-25 21:34 | 52.42566 | 3.49683 | 34273 ft | 473 kts | 107° |
| 2026-04-25 21:34 | 52.41600 | 3.54809 | 33853 ft | 468 kts | 107° |
| 2026-04-25 21:34 | 52.40644 | 3.59863 | 33443 ft | 463 kts | 107° |
| 2026-04-25 21:35 | 52.39694 | 3.64878 | 33038 ft | 458 kts | 107° |
| 2026-04-25 21:35 | 52.38755 | 3.69822 | 32644 ft | 453 kts | 107° |
| 2026-04-25 21:35 | 52.37823 | 3.74715 | 32235 ft | 448 kts | 107° |
| 2026-04-25 21:35 | 52.36893 | 3.79582 | 31853 ft | 449 kts | 107° |
| 2026-04-25 21:36 | 52.35958 | 3.84465 | 31479 ft | 450 kts | 107° |
| 2026-04-25 21:36 | 52.35022 | 3.89341 | 31098 ft | 448 kts | 108° |
| 2026-04-25 21:36 | 52.34091 | 3.94180 | 30728 ft | 444 kts | 108° |
| 2026-04-25 21:36 | 52.33166 | 3.98972 | 30368 ft | 440 kts | 108° |
| 2026-04-25 21:37 | 52.32247 | 4.03712 | 29952 ft | 436 kts | 109° |
| 2026-04-25 21:37 | 52.31450 | 4.06780 | 29600 ft | 435 kts | 122° |
| 2026-04-25 21:37 | 52.28651 | 4.11473 | 29077 ft | 435 kts | 149° |
| 2026-04-25 21:37 | 52.25947 | 4.13551 | 28665 ft | 434 kts | 164° |
| 2026-04-25 21:38 | 52.23015 | 4.14633 | 28242 ft | 431 kts | 171° |
| 2026-04-25 21:38 | 52.20057 | 4.15433 | 27819 ft | 430 kts | 172° |
| 2026-04-25 21:38 | 52.17111 | 4.16171 | 27404 ft | 429 kts | 173° |
| 2026-04-25 21:38 | 52.14157 | 4.16908 | 26986 ft | 427 kts | 172° |
| 2026-04-25 21:39 | 52.11242 | 4.17652 | 26528 ft | 423 kts | 172° |
| 2026-04-25 21:39 | 52.08343 | 4.18412 | 26052 ft | 420 kts | 172° |
| 2026-04-25 21:39 | 52.05466 | 4.19182 | 25574 ft | 417 kts | 172° |
| 2026-04-25 21:39 | 52.02615 | 4.19953 | 25118 ft | 414 kts | 172° |
| 2026-04-25 21:40 | 51.99782 | 4.20724 | 24665 ft | 411 kts | 172° |
| 2026-04-25 21:40 | 51.96968 | 4.21491 | 24215 ft | 409 kts | 172° |
| 2026-04-25 21:40 | 51.94170 | 4.22253 | 23778 ft | 406 kts | 172° |
| 2026-04-25 21:40 | 51.91396 | 4.23007 | 23251 ft | 404 kts | 172° |
| 2026-04-25 21:41 | 51.88631 | 4.23757 | 22742 ft | 401 kts | 172° |
| 2026-04-25 21:41 | 51.85886 | 4.24501 | 22236 ft | 399 kts | 172° |
| 2026-04-25 21:41 | 51.83156 | 4.25239 | 21744 ft | 397 kts | 172° |
| 2026-04-25 21:41 | 51.80443 | 4.25972 | 21262 ft | 395 kts | 172° |
| 2026-04-25 21:42 | 51.77744 | 4.26701 | 20780 ft | 392 kts | 172° |
| 2026-04-25 21:42 | 51.75056 | 4.27425 | 20310 ft | 390 kts | 172° |
| 2026-04-25 21:42 | 51.72384 | 4.28144 | 19851 ft | 388 kts | 171° |
| 2026-04-25 21:42 | 51.69729 | 4.28858 | 19395 ft | 387 kts | 171° |
| 2026-04-25 21:43 | 51.67075 | 4.29571 | 18944 ft | 385 kts | 171° |
| 2026-04-25 21:43 | 51.64439 | 4.30278 | 18486 ft | 383 kts | 171° |
| 2026-04-25 21:43 | 51.61821 | 4.30980 | 17987 ft | 381 kts | 171° |
| 2026-04-25 21:43 | 51.59175 | 4.31689 | 17468 ft | 379 kts | 171° |
| 2026-04-25 21:44 | 51.56582 | 4.32384 | 16982 ft | 377 kts | 171° |
| 2026-04-25 21:44 | 51.54000 | 4.33113 | 16501 ft | 376 kts | 171° |
| 2026-04-25 21:44 | 51.48879 | 4.34599 | 15577 ft | 372 kts | 170° |
| 2026-04-25 21:45 | 51.46348 | 4.35341 | 15160 ft | 369 kts | 170° |
| 2026-04-25 21:45 | 51.44683 | 4.35831 | 14886 ft | 367 kts | 170° |
| 2026-04-25 21:45 | 51.41334 | 4.36821 | 14339 ft | 364 kts | 170° |
| 2026-04-25 21:45 | 51.38853 | 4.37558 | 13916 ft | 361 kts | 170° |
| 2026-04-25 21:46 | 51.36388 | 4.38292 | 13469 ft | 359 kts | 170° |
| 2026-04-25 21:46 | 51.33945 | 4.39019 | 13048 ft | 356 kts | 170° |
| 2026-04-25 21:46 | 51.31516 | 4.39742 | 12648 ft | 353 kts | 170° |
| 2026-04-25 21:46 | 51.29118 | 4.40453 | 12258 ft | 350 kts | 170° |
| 2026-04-25 21:47 | 51.26733 | 4.41158 | 11840 ft | 347 kts | 170° |
| 2026-04-25 21:47 | 51.24370 | 4.41881 | 11443 ft | 341 kts | 166° |
| 2026-04-25 21:47 | 51.22255 | 4.43332 | 11035 ft | 339 kts | 147° |
| 2026-04-25 21:47 | 51.20370 | 4.45485 | 10681 ft | 336 kts | 142° |
| 2026-04-25 21:48 | 51.18708 | 4.48032 | 10278 ft | 331 kts | 128° |
| 2026-04-25 21:48 | 51.17363 | 4.50973 | 9895 ft | 328 kts | 123° |
| 2026-04-25 21:48 | 51.16092 | 4.53990 | 9480 ft | 327 kts | 123° |
| 2026-04-25 21:48 | 51.14854 | 4.56953 | 9095 ft | 310 kts | 122° |
| 2026-04-25 21:49 | 51.13701 | 4.59715 | 8733 ft | 290 kts | 122° |
| 2026-04-25 21:49 | 51.12606 | 4.62326 | 8294 ft | 277 kts | 122° |
| 2026-04-25 21:49 | 51.11531 | 4.64882 | 7880 ft | 273 kts | 122° |
| 2026-04-25 21:49 | 51.10471 | 4.67397 | 7511 ft | 277 kts | 122° |
| 2026-04-25 21:50 | 51.09403 | 4.69919 | 7107 ft | 268 kts | 122° |
| 2026-04-25 21:50 | 51.08378 | 4.72324 | 6700 ft | 257 kts | 122° |
| 2026-04-25 21:50 | 51.07394 | 4.74615 | 6276 ft | 248 kts | 122° |
| 2026-04-25 21:50 | 51.06744 | 4.76124 | 6028 ft | 251 kts | 122° |
| 2026-04-25 21:51 | 51.05417 | 4.79201 | 5503 ft | 254 kts | 122° |
| 2026-04-25 21:51 | 51.04410 | 4.81533 | 5115 ft | 257 kts | 122° |
| 2026-04-25 21:51 | 51.03204 | 4.83588 | 4678 ft | 258 kts | 147° |
| 2026-04-25 21:51 | 51.01530 | 4.84496 | 4266 ft | 251 kts | 178° |
| 2026-04-25 21:52 | 50.99876 | 4.83959 | 3929 ft | 242 kts | 210° |
| 2026-04-25 21:52 | 50.98528 | 4.82464 | 3703 ft | 236 kts | 221° |
| 2026-04-25 21:52 | 50.97261 | 4.80797 | 3478 ft | 237 kts | 222° |
| 2026-04-25 21:52 | 50.96139 | 4.78934 | 3179 ft | 232 kts | 242° |
| 2026-04-25 21:53 | 50.95502 | 4.76649 | 3073 ft | 220 kts | 252° |
| 2026-04-25 21:53 | 50.94987 | 4.74461 | 3066 ft | 203 kts | 252° |
| 2026-04-25 21:53 | 50.94512 | 4.72399 | 2833 ft | 197 kts | 253° |
| 2026-04-25 21:53 | 50.94052 | 4.70391 | 2566 ft | 191 kts | 252° |
| 2026-04-25 21:54 | 50.93601 | 4.68427 | 2321 ft | 188 kts | 252° |
| 2026-04-25 21:54 | 50.93155 | 4.66488 | 2097 ft | 186 kts | 252° |
| 2026-04-25 21:54 | 50.92717 | 4.64585 | 1821 ft | 179 kts | 252° |
| 2026-04-25 21:54 | 50.92308 | 4.62810 | 1562 ft | 163 kts | 252° |
| 2026-04-25 21:55 | 50.91934 | 4.61184 | 1390 ft | 157 kts | 252° |
| 2026-04-25 21:55 | 50.91558 | 4.59550 | 1167 ft | 158 kts | 252° |
| 2026-04-25 21:55 | 50.91184 | 4.57928 | 944 ft | 154 kts | 252° |
| 2026-04-25 21:55 | 50.90824 | 4.56358 | 727 ft | 150 kts | 251° |
| 2026-04-25 21:56 | 50.90469 | 4.54816 | 528 ft | 149 kts | 251° |
| 2026-04-25 21:56 | 50.90231 | 4.53780 | 382 ft | 148 kts | 251° |
| 2026-04-25 21:56 | 50.89760 | 4.51763 | 177 ft | 140 kts | 250° |
| 2026-04-25 21:56 | 50.89472 | 4.50498 | 180 ft | 102 kts | 250° |
| 2026-04-25 21:57 | 50.89285 | 4.49689 | 182 ft | 51 kts | 250° |
| 2026-04-25 21:57 | 50.89229 | 4.49421 | 181 ft | 18 kts | 263° |
| 2026-04-25 21:57 | 50.89264 | 4.49245 | 177 ft | 9 kts | 308° |
| 2026-04-25 21:57 | 50.89298 | 4.49181 | 174 ft | 0 kts | 310° |
| 2026-04-25 21:58 | 50.89312 | 4.49155 | 173 ft | 6 kts | 310° |
| 2026-04-25 21:58 | 50.89346 | 4.49091 | 171 ft | 9 kts | 310° |
| 2026-04-25 21:58 | 50.89400 | 4.48996 | 166 ft | 12 kts | 322° |
| 2026-04-25 21:58 | 50.89458 | 4.49009 | 164 ft | 9 kts | 24° |
| 2026-04-25 21:59 | 50.89524 | 4.49049 | 162 ft | 12 kts | 18° |
| 2026-04-25 21:59 | 50.89607 | 4.49104 | 159 ft | 14 kts | 35° |
| 2026-04-25 21:59 | 50.89697 | 4.49167 | 154 ft | 16 kts | 17° |
| 2026-04-25 22:00 | 50.89872 | 4.49236 | 144 ft | 12 kts | 14° |
| 2026-04-25 22:00 | 50.89952 | 4.49250 | 140 ft | 9 kts | 352° |
| 2026-04-25 22:00 | 50.90010 | 4.49232 | 138 ft | 10 kts | 346° |
| 2026-04-25 22:00 | 50.90031 | 4.49221 | 137 ft | 1 kts | 337° |
| 2026-04-25 22:01 | 50.90055 | 4.49204 | 136 ft | 4 kts | 336° |
| 2026-04-25 22:01 | 50.90067 | 4.49196 | 132 ft | 2 kts | 335° |
| 2026-04-25 22:01 | 50.90073 | 4.49192 | 134 ft | 2 kts | 335° |